AFV404 OMDB-FQMA
Flight info
| Callsign | AFV404 |
|---|---|
| Flight time | 7h 28m |
| Altitude | 34000 |
| Route | ANVIX R401 GIDIS G783 UKRAG L710 KUKDI B400 VEDET UL437 DV UM310 AXIVO AXIVO1B |
| Aircraft | B77W/H-SDE1E2E3FGHIJ2J3J4J5M1RWXY/LB1D1 |
Departure
| Time | 2026-04-22 14:04 |
|---|---|
| Airport | Dubai International Airport (OMDB) |
Arrival
| Time | 2026-04-22 21:33 |
|---|---|
| Airport | Maputo Airport (FQMA) |
| Time | Latitude | Longitude | Altitude | Speed | Heading |
|---|---|---|---|---|---|
| 2026-04-22 13:33 | 25.24209 | 55.37588 | 25 ft | 0 kts | 249° |
| 2026-04-22 13:54 | 25.24213 | 55.37599 | 31 ft | 2 kts | 247° |
| 2026-04-22 13:54 | 25.24219 | 55.37616 | 31 ft | 2 kts | 249° |
| 2026-04-22 13:54 | 25.24225 | 55.37633 | 31 ft | 2 kts | 249° |
| 2026-04-22 13:55 | 25.24231 | 55.37650 | 31 ft | 2 kts | 248° |
| 2026-04-22 13:55 | 25.24237 | 55.37667 | 31 ft | 2 kts | 248° |
| 2026-04-22 13:55 | 25.24246 | 55.37689 | 31 ft | 2 kts | 242° |
| 2026-04-22 13:55 | 25.24251 | 55.37699 | 31 ft | 2 kts | 217° |
| 2026-04-22 13:56 | 25.24267 | 55.37704 | 26 ft | 2 kts | 160° |
| 2026-04-22 13:56 | 25.24279 | 55.37693 | 31 ft | 2 kts | 122° |
| 2026-04-22 13:56 | 25.24287 | 55.37679 | 31 ft | 1 kts | 119° |
| 2026-04-22 13:56 | 25.24288 | 55.37676 | 31 ft | 0 kts | 119° |
| 2026-04-22 13:59 | 25.24273 | 55.37704 | 26 ft | 9 kts | 120° |
| 2026-04-22 14:00 | 25.24275 | 55.37770 | 34 ft | 9 kts | 58° |
| 2026-04-22 14:00 | 25.24323 | 55.37816 | 26 ft | 9 kts | 35° |
| 2026-04-22 14:00 | 25.24342 | 55.37830 | 26 ft | 0 kts | 35° |
| 2026-04-22 14:01 | 25.24382 | 55.37861 | 26 ft | 19 kts | 35° |
| 2026-04-22 14:02 | 25.24529 | 55.37974 | 29 ft | 27 kts | 34° |
| 2026-04-22 14:02 | 25.24629 | 55.38046 | 28 ft | 0 kts | 32° |
| 2026-04-22 14:03 | 25.24638 | 55.38052 | 28 ft | 8 kts | 32° |
| 2026-04-22 14:03 | 25.24714 | 55.38102 | 30 ft | 13 kts | 26° |
| 2026-04-22 14:03 | 25.24786 | 55.38062 | 30 ft | 14 kts | 302° |
| 2026-04-22 14:04 | 25.24934 | 55.37800 | 30 ft | 86 kts | 302° |
| 2026-04-22 14:04 | 25.25446 | 55.36892 | 53 ft | 188 kts | 305° |
| 2026-04-22 14:04 | 25.26193 | 55.35572 | 1018 ft | 214 kts | 305° |
| 2026-04-22 14:04 | 25.27025 | 55.34126 | 2169 ft | 231 kts | 303° |
| 2026-04-22 14:05 | 25.27902 | 55.32616 | 2934 ft | 237 kts | 301° |
| 2026-04-22 14:05 | 25.28785 | 55.31072 | 3511 ft | 232 kts | 299° |
| 2026-04-22 14:05 | 25.28897 | 55.28023 | 3983 ft | 204 kts | 244° |
| 2026-04-22 14:06 | 25.28287 | 55.26552 | 4015 ft | 213 kts | 245° |
| 2026-04-22 14:06 | 25.27676 | 55.25077 | 4053 ft | 210 kts | 245° |
| 2026-04-22 14:06 | 25.27077 | 55.23651 | 4281 ft | 205 kts | 245° |
| 2026-04-22 14:06 | 25.26478 | 55.22235 | 5046 ft | 199 kts | 245° |
| 2026-04-22 14:07 | 25.25893 | 55.20853 | 5758 ft | 204 kts | 245° |
| 2026-04-22 14:07 | 25.25255 | 55.19350 | 6129 ft | 223 kts | 244° |
| 2026-04-22 14:07 | 25.24484 | 55.17846 | 6679 ft | 232 kts | 228° |
| 2026-04-22 14:07 | 25.23090 | 55.16888 | 7230 ft | 246 kts | 199° |
| 2026-04-22 14:08 | 25.21364 | 55.16718 | 7896 ft | 254 kts | 180° |
| 2026-04-22 14:08 | 25.19602 | 55.17012 | 8548 ft | 264 kts | 162° |
| 2026-04-22 14:08 | 25.18069 | 55.18198 | 9193 ft | 276 kts | 133° |
| 2026-04-22 14:08 | 25.17062 | 55.20003 | 9981 ft | 278 kts | 120° |
| 2026-04-22 14:09 | 25.16141 | 55.21948 | 10455 ft | 295 kts | 120° |
| 2026-04-22 14:09 | 25.15171 | 55.23990 | 11063 ft | 305 kts | 120° |
| 2026-04-22 14:09 | 25.14170 | 55.26090 | 11807 ft | 311 kts | 120° |
| 2026-04-22 14:09 | 25.13156 | 55.28214 | 12617 ft | 315 kts | 120° |
| 2026-04-22 14:10 | 25.12128 | 55.30359 | 13476 ft | 318 kts | 120° |
| 2026-04-22 14:10 | 25.11084 | 55.32529 | 14244 ft | 322 kts | 120° |
| 2026-04-22 14:10 | 25.10068 | 55.34764 | 14847 ft | 329 kts | 117° |
| 2026-04-22 14:10 | 25.09124 | 55.37078 | 15033 ft | 334 kts | 116° |
| 2026-04-22 14:11 | 25.08179 | 55.39426 | 15023 ft | 334 kts | 116° |
| 2026-04-22 14:11 | 25.07233 | 55.41753 | 14905 ft | 333 kts | 116° |
| 2026-04-22 14:11 | 25.06324 | 55.44086 | 14796 ft | 328 kts | 115° |
| 2026-04-22 14:11 | 25.05446 | 55.46391 | 14763 ft | 325 kts | 115° |
| 2026-04-22 14:12 | 25.04567 | 55.48694 | 14777 ft | 327 kts | 115° |
| 2026-04-22 14:12 | 25.03681 | 55.51002 | 15389 ft | 329 kts | 115° |
| 2026-04-22 14:12 | 25.02769 | 55.53363 | 15951 ft | 343 kts | 115° |
| 2026-04-22 14:12 | 25.01783 | 55.55870 | 16105 ft | 369 kts | 117° |
| 2026-04-22 14:13 | 25.00519 | 55.58423 | 16296 ft | 391 kts | 123° |
| 2026-04-22 14:13 | 24.99075 | 55.60977 | 16471 ft | 413 kts | 124° |
| 2026-04-22 14:13 | 24.97522 | 55.63700 | 16960 ft | 426 kts | 123° |
| 2026-04-22 14:13 | 24.95964 | 55.66523 | 17610 ft | 434 kts | 123° |
| 2026-04-22 14:14 | 24.94407 | 55.69397 | 18319 ft | 439 kts | 123° |
| 2026-04-22 14:14 | 24.92772 | 55.72198 | 18946 ft | 442 kts | 127° |
| 2026-04-22 14:14 | 24.90943 | 55.74945 | 19571 ft | 447 kts | 129° |
| 2026-04-22 14:14 | 24.89052 | 55.77675 | 20188 ft | 452 kts | 130° |
| 2026-04-22 14:15 | 24.87146 | 55.80464 | 20800 ft | 458 kts | 129° |
| 2026-04-22 14:15 | 24.85257 | 55.83288 | 21385 ft | 464 kts | 128° |
| 2026-04-22 14:15 | 24.83333 | 55.86190 | 21970 ft | 469 kts | 129° |
| 2026-04-22 14:15 | 24.81380 | 55.89080 | 22536 ft | 470 kts | 131° |
| 2026-04-22 14:16 | 24.79019 | 55.91549 | 22836 ft | 471 kts | 150° |
| 2026-04-22 14:16 | 24.76078 | 55.93078 | 23357 ft | 467 kts | 166° |
| 2026-04-22 14:16 | 24.72920 | 55.93779 | 23912 ft | 461 kts | 180° |
| 2026-04-22 14:16 | 24.69729 | 55.93722 | 24414 ft | 459 kts | 187° |
| 2026-04-22 14:17 | 24.66521 | 55.93522 | 24866 ft | 464 kts | 187° |
| 2026-04-22 14:17 | 24.63299 | 55.93258 | 25260 ft | 464 kts | 193° |
| 2026-04-22 14:17 | 24.60198 | 55.92311 | 25645 ft | 462 kts | 206° |
| 2026-04-22 14:17 | 24.57344 | 55.90725 | 26141 ft | 460 kts | 216° |
| 2026-04-22 14:18 | 24.54842 | 55.88581 | 26597 ft | 456 kts | 225° |
| 2026-04-22 14:18 | 24.52486 | 55.86238 | 27014 ft | 460 kts | 225° |
| 2026-04-22 14:18 | 24.50103 | 55.83861 | 27443 ft | 464 kts | 225° |
| 2026-04-22 14:18 | 24.47697 | 55.81494 | 27907 ft | 467 kts | 225° |
| 2026-04-22 14:19 | 24.45253 | 55.79123 | 28353 ft | 469 kts | 225° |
| 2026-04-22 14:19 | 24.42793 | 55.76760 | 28799 ft | 471 kts | 224° |
| 2026-04-22 14:19 | 24.40320 | 55.74393 | 29239 ft | 473 kts | 224° |
| 2026-04-22 14:19 | 24.37837 | 55.72016 | 29623 ft | 475 kts | 225° |
| 2026-04-22 14:20 | 24.32869 | 55.67230 | 30518 ft | 473 kts | 225° |
| 2026-04-22 14:20 | 24.30407 | 55.64854 | 31027 ft | 471 kts | 225° |
| 2026-04-22 14:20 | 24.27805 | 55.62673 | 31488 ft | 474 kts | 218° |
| 2026-04-22 14:21 | 24.21876 | 55.59381 | 32279 ft | 482 kts | 206° |
| 2026-04-22 14:21 | 24.18658 | 55.58286 | 32691 ft | 486 kts | 201° |
| 2026-04-22 14:22 | 24.12154 | 55.56458 | 33492 ft | 485 kts | 200° |
| 2026-04-22 14:22 | 24.08853 | 55.55520 | 33851 ft | 484 kts | 201° |
| 2026-04-22 14:22 | 24.02397 | 55.53619 | 34442 ft | 484 kts | 202° |
| 2026-04-22 14:23 | 23.99181 | 55.52663 | 34721 ft | 484 kts | 202° |
| 2026-04-22 14:23 | 23.95936 | 55.51696 | 34988 ft | 484 kts | 202° |
| 2026-04-22 14:23 | 23.92688 | 55.50728 | 35255 ft | 484 kts | 202° |
| 2026-04-22 14:23 | 23.89439 | 55.49761 | 35537 ft | 484 kts | 203° |
| 2026-04-22 14:24 | 23.86186 | 55.48793 | 35673 ft | 487 kts | 203° |
| 2026-04-22 14:24 | 23.79621 | 55.46837 | 35793 ft | 489 kts | 203° |
| 2026-04-22 14:24 | 23.76345 | 55.45862 | 36098 ft | 487 kts | 203° |
| 2026-04-22 14:25 | 23.73089 | 55.44894 | 36452 ft | 484 kts | 204° |
| 2026-04-22 14:25 | 23.69839 | 55.43927 | 36745 ft | 483 kts | 204° |
| 2026-04-22 14:25 | 23.66598 | 55.42960 | 36970 ft | 483 kts | 204° |
| 2026-04-22 14:25 | 23.63360 | 55.41996 | 37283 ft | 481 kts | 204° |
| 2026-04-22 14:26 | 23.60140 | 55.41040 | 37704 ft | 478 kts | 204° |
| 2026-04-22 14:26 | 23.53601 | 55.39392 | 37739 ft | 493 kts | 194° |
| 2026-04-22 14:26 | 23.50130 | 55.39286 | 37727 ft | 504 kts | 185° |
| 2026-04-22 14:27 | 23.46627 | 55.39734 | 37737 ft | 513 kts | 175° |
| 2026-04-22 14:27 | 23.39695 | 55.41842 | 37723 ft | 518 kts | 171° |
| 2026-04-22 14:28 | 23.32797 | 55.44112 | 37730 ft | 518 kts | 171° |
| 2026-04-22 14:28 | 23.25887 | 55.46335 | 37730 ft | 518 kts | 171° |
| 2026-04-22 14:29 | 23.18952 | 55.48523 | 37733 ft | 519 kts | 171° |
| 2026-04-22 14:29 | 23.12044 | 55.50699 | 37752 ft | 521 kts | 171° |
| 2026-04-22 14:30 | 23.05069 | 55.52898 | 37752 ft | 523 kts | 171° |
| 2026-04-22 14:30 | 22.98103 | 55.55060 | 37740 ft | 524 kts | 171° |
| 2026-04-22 14:31 | 22.91075 | 55.57194 | 37738 ft | 524 kts | 171° |
| 2026-04-22 14:31 | 22.84045 | 55.59333 | 37751 ft | 525 kts | 171° |
| 2026-04-22 14:32 | 22.77010 | 55.61479 | 37748 ft | 525 kts | 171° |
| 2026-04-22 14:32 | 22.69983 | 55.63621 | 37750 ft | 525 kts | 171° |
| 2026-04-22 14:33 | 22.62954 | 55.65761 | 37746 ft | 524 kts | 171° |
| 2026-04-22 14:33 | 22.55941 | 55.67905 | 37753 ft | 524 kts | 171° |
| 2026-04-22 14:34 | 22.48930 | 55.70056 | 37757 ft | 524 kts | 171° |
| 2026-04-22 14:34 | 22.41914 | 55.72205 | 37739 ft | 523 kts | 171° |
| 2026-04-22 14:35 | 22.34905 | 55.74349 | 37761 ft | 523 kts | 171° |
| 2026-04-22 14:35 | 22.27893 | 55.76474 | 37760 ft | 522 kts | 173° |
| 2026-04-22 14:36 | 22.20806 | 55.77741 | 37764 ft | 512 kts | 182° |
| 2026-04-22 14:36 | 22.13708 | 55.78382 | 37758 ft | 512 kts | 182° |
| 2026-04-22 14:37 | 22.06594 | 55.79044 | 37778 ft | 514 kts | 182° |
| 2026-04-22 14:37 | 21.99488 | 55.79750 | 37774 ft | 515 kts | 182° |
| 2026-04-22 14:38 | 21.92386 | 55.80471 | 37748 ft | 516 kts | 182° |
| 2026-04-22 14:38 | 21.85237 | 55.81192 | 37773 ft | 516 kts | 182° |
| 2026-04-22 14:39 | 21.78089 | 55.81909 | 37774 ft | 516 kts | 182° |
| 2026-04-22 14:39 | 21.70880 | 55.82631 | 37775 ft | 517 kts | 182° |
| 2026-04-22 14:40 | 21.61348 | 55.83570 | 37770 ft | 517 kts | 182° |
| 2026-04-22 14:40 | 21.54185 | 55.84267 | 37780 ft | 517 kts | 182° |
| 2026-04-22 14:41 | 21.47052 | 55.84963 | 37778 ft | 517 kts | 182° |
| 2026-04-22 14:41 | 21.39885 | 55.85663 | 37778 ft | 518 kts | 182° |
| 2026-04-22 14:42 | 21.32712 | 55.86363 | 37775 ft | 518 kts | 182° |
| 2026-04-22 14:42 | 21.25538 | 55.87061 | 37776 ft | 517 kts | 182° |
| 2026-04-22 14:43 | 21.18367 | 55.87751 | 37770 ft | 517 kts | 182° |
| 2026-04-22 14:43 | 21.11197 | 55.88439 | 37755 ft | 517 kts | 181° |
| 2026-04-22 14:44 | 21.04034 | 55.89127 | 37777 ft | 517 kts | 181° |
| 2026-04-22 14:44 | 20.96899 | 55.89812 | 37781 ft | 517 kts | 181° |
| 2026-04-22 14:45 | 20.89721 | 55.90500 | 37775 ft | 518 kts | 181° |
| 2026-04-22 14:45 | 20.82543 | 55.91192 | 37764 ft | 518 kts | 181° |
| 2026-04-22 14:46 | 20.75366 | 55.91899 | 37774 ft | 518 kts | 181° |
| 2026-04-22 14:46 | 20.68175 | 55.92608 | 37772 ft | 519 kts | 181° |
| 2026-04-22 14:47 | 20.60982 | 55.93315 | 37770 ft | 519 kts | 181° |
| 2026-04-22 14:47 | 20.53789 | 55.94019 | 37756 ft | 519 kts | 181° |
| 2026-04-22 14:48 | 20.46585 | 55.94725 | 37770 ft | 520 kts | 181° |
| 2026-04-22 14:48 | 20.39381 | 55.95429 | 37774 ft | 520 kts | 181° |
| 2026-04-22 14:49 | 20.32213 | 55.96130 | 37772 ft | 520 kts | 181° |
| 2026-04-22 14:49 | 20.24958 | 55.96827 | 37770 ft | 520 kts | 181° |
| 2026-04-22 14:50 | 20.17745 | 55.97511 | 37770 ft | 521 kts | 181° |
| 2026-04-22 14:50 | 20.10576 | 55.98192 | 37781 ft | 521 kts | 181° |
| 2026-04-22 14:51 | 20.03308 | 55.98597 | 37782 ft | 517 kts | 185° |
| 2026-04-22 14:51 | 19.96219 | 55.98732 | 37789 ft | 517 kts | 185° |
| 2026-04-22 14:52 | 19.89015 | 55.98871 | 37781 ft | 518 kts | 185° |
| 2026-04-22 14:52 | 19.81809 | 55.99040 | 37775 ft | 518 kts | 185° |
| 2026-04-22 14:53 | 19.74601 | 55.99218 | 37770 ft | 518 kts | 185° |
| 2026-04-22 14:53 | 19.67390 | 55.99395 | 37790 ft | 518 kts | 185° |
| 2026-04-22 14:54 | 19.60167 | 55.99569 | 37789 ft | 518 kts | 185° |
| 2026-04-22 14:54 | 19.53019 | 55.99383 | 37789 ft | 506 kts | 197° |
| 2026-04-22 14:55 | 19.46400 | 55.97296 | 37804 ft | 489 kts | 212° |
| 2026-04-22 14:55 | 19.40543 | 55.93818 | 37810 ft | 481 kts | 218° |
| 2026-04-22 14:56 | 19.34800 | 55.90233 | 37810 ft | 483 kts | 218° |
| 2026-04-22 14:56 | 19.28977 | 55.86666 | 37814 ft | 485 kts | 218° |
| 2026-04-22 14:57 | 19.23115 | 55.83116 | 37812 ft | 486 kts | 217° |
| 2026-04-22 14:57 | 19.17245 | 55.79566 | 37819 ft | 486 kts | 218° |
| 2026-04-22 14:58 | 19.11363 | 55.76007 | 37802 ft | 486 kts | 217° |
| 2026-04-22 14:58 | 19.05497 | 55.72460 | 37817 ft | 486 kts | 217° |
| 2026-04-22 14:59 | 18.99647 | 55.68936 | 37818 ft | 486 kts | 217° |
| 2026-04-22 14:59 | 18.93768 | 55.65404 | 37822 ft | 485 kts | 217° |
| 2026-04-22 15:00 | 18.87904 | 55.61881 | 37823 ft | 485 kts | 217° |
| 2026-04-22 15:00 | 18.82037 | 55.58357 | 37817 ft | 485 kts | 217° |
| 2026-04-22 15:01 | 18.76167 | 55.54834 | 37823 ft | 485 kts | 217° |
| 2026-04-22 15:01 | 18.70298 | 55.51315 | 37817 ft | 485 kts | 217° |
| 2026-04-22 15:02 | 18.64462 | 55.47818 | 37826 ft | 485 kts | 217° |
| 2026-04-22 15:02 | 18.58592 | 55.44303 | 37821 ft | 485 kts | 217° |
| 2026-04-22 15:03 | 18.52715 | 55.40787 | 37827 ft | 485 kts | 217° |
| 2026-04-22 15:03 | 18.46842 | 55.37276 | 37824 ft | 486 kts | 217° |
| 2026-04-22 15:04 | 18.40960 | 55.33762 | 37823 ft | 485 kts | 217° |
| 2026-04-22 15:04 | 18.35083 | 55.30255 | 37825 ft | 485 kts | 217° |
| 2026-04-22 15:05 | 18.29208 | 55.26749 | 37823 ft | 485 kts | 217° |
| 2026-04-22 15:05 | 18.23335 | 55.23246 | 37824 ft | 484 kts | 217° |
| 2026-04-22 15:06 | 18.17475 | 55.19752 | 37812 ft | 484 kts | 217° |
| 2026-04-22 15:06 | 18.11473 | 55.16477 | 37827 ft | 490 kts | 211° |
| 2026-04-22 15:07 | 18.05193 | 55.13678 | 37831 ft | 491 kts | 210° |
| 2026-04-22 15:07 | 17.98907 | 55.10917 | 37832 ft | 491 kts | 210° |
| 2026-04-22 15:08 | 17.92653 | 55.08134 | 37830 ft | 492 kts | 210° |
| 2026-04-22 15:08 | 17.86358 | 55.05312 | 37818 ft | 492 kts | 210° |
| 2026-04-22 15:09 | 17.80062 | 55.02487 | 37855 ft | 492 kts | 210° |
| 2026-04-22 15:09 | 17.73762 | 54.99666 | 37849 ft | 493 kts | 210° |
| 2026-04-22 15:10 | 17.67458 | 54.96847 | 37837 ft | 493 kts | 210° |
| 2026-04-22 15:10 | 17.61154 | 54.94030 | 37856 ft | 492 kts | 210° |
| 2026-04-22 15:11 | 17.54850 | 54.91214 | 37863 ft | 492 kts | 210° |
| 2026-04-22 15:11 | 17.48548 | 54.88402 | 37847 ft | 492 kts | 210° |
| 2026-04-22 15:12 | 17.42240 | 54.85589 | 37883 ft | 492 kts | 210° |
| 2026-04-22 15:12 | 17.35937 | 54.82781 | 37883 ft | 493 kts | 210° |
| 2026-04-22 15:13 | 17.29628 | 54.79971 | 37882 ft | 493 kts | 210° |
| 2026-04-22 15:13 | 17.23623 | 54.76669 | 37874 ft | 483 kts | 220° |
| 2026-04-22 15:14 | 17.18003 | 54.72843 | 37884 ft | 482 kts | 220° |
| 2026-04-22 15:14 | 17.12382 | 54.69023 | 37889 ft | 482 kts | 220° |
| 2026-04-22 15:15 | 17.06769 | 54.65260 | 37886 ft | 483 kts | 220° |
| 2026-04-22 15:15 | 17.01122 | 54.61494 | 37883 ft | 481 kts | 220° |
| 2026-04-22 15:16 | 16.95553 | 54.57774 | 37879 ft | 482 kts | 220° |
| 2026-04-22 15:16 | 16.89906 | 54.54005 | 37854 ft | 482 kts | 219° |
| 2026-04-22 15:17 | 16.84247 | 54.50232 | 37860 ft | 483 kts | 219° |
| 2026-04-22 15:17 | 16.78585 | 54.46455 | 37861 ft | 483 kts | 219° |
| 2026-04-22 15:18 | 16.72919 | 54.42676 | 37851 ft | 484 kts | 219° |
| 2026-04-22 15:18 | 16.67247 | 54.38897 | 37848 ft | 484 kts | 219° |
| 2026-04-22 15:19 | 16.61573 | 54.35120 | 37850 ft | 484 kts | 219° |
| 2026-04-22 15:19 | 16.55900 | 54.31345 | 37841 ft | 484 kts | 219° |
| 2026-04-22 15:20 | 16.50220 | 54.27568 | 37863 ft | 484 kts | 219° |
| 2026-04-22 15:20 | 16.44538 | 54.23793 | 37860 ft | 484 kts | 219° |
| 2026-04-22 15:21 | 16.38854 | 54.20019 | 37855 ft | 485 kts | 219° |
| 2026-04-22 15:21 | 16.33168 | 54.16246 | 37861 ft | 485 kts | 219° |
| 2026-04-22 15:22 | 16.27480 | 54.12475 | 37854 ft | 485 kts | 219° |
| 2026-04-22 15:22 | 16.21829 | 54.08731 | 37859 ft | 484 kts | 219° |
| 2026-04-22 15:23 | 16.16142 | 54.04965 | 37863 ft | 485 kts | 219° |
| 2026-04-22 15:23 | 16.10445 | 54.01196 | 37864 ft | 485 kts | 219° |
| 2026-04-22 15:24 | 16.04914 | 53.97539 | 37868 ft | 485 kts | 219° |
| 2026-04-22 15:24 | 15.99249 | 53.93795 | 37864 ft | 485 kts | 219° |
| 2026-04-22 15:25 | 15.93556 | 53.90034 | 37866 ft | 485 kts | 219° |
| 2026-04-22 15:25 | 15.87860 | 53.86276 | 37864 ft | 484 kts | 219° |
| 2026-04-22 15:26 | 15.82193 | 53.82503 | 37860 ft | 484 kts | 219° |
| 2026-04-22 15:26 | 15.77493 | 53.79353 | 37863 ft | 484 kts | 219° |
| 2026-04-22 15:27 | 15.71835 | 53.75565 | 37862 ft | 484 kts | 219° |
| 2026-04-22 15:27 | 15.66176 | 53.71786 | 37865 ft | 483 kts | 219° |
| 2026-04-22 15:28 | 15.60522 | 53.68014 | 37851 ft | 483 kts | 219° |
| 2026-04-22 15:28 | 15.54877 | 53.64249 | 37859 ft | 482 kts | 219° |
| 2026-04-22 15:29 | 15.49233 | 53.60487 | 37865 ft | 482 kts | 219° |
| 2026-04-22 15:30 | 15.40750 | 53.54864 | 37863 ft | 483 kts | 218° |
| 2026-04-22 15:30 | 15.35024 | 53.51200 | 37864 ft | 484 kts | 218° |
| 2026-04-22 15:31 | 15.29281 | 53.47547 | 37866 ft | 484 kts | 218° |
| 2026-04-22 15:31 | 15.23541 | 53.43882 | 37863 ft | 484 kts | 218° |
| 2026-04-22 15:32 | 15.17805 | 53.40212 | 37863 ft | 485 kts | 218° |
| 2026-04-22 15:32 | 15.12067 | 53.36541 | 37863 ft | 485 kts | 218° |
| 2026-04-22 15:33 | 15.06330 | 53.32875 | 37863 ft | 485 kts | 218° |
| 2026-04-22 15:33 | 15.00587 | 53.29207 | 37863 ft | 485 kts | 218° |
| 2026-04-22 15:34 | 14.94873 | 53.25560 | 37852 ft | 485 kts | 217° |
| 2026-04-22 15:34 | 14.89130 | 53.21897 | 37865 ft | 485 kts | 218° |
| 2026-04-22 15:35 | 14.83428 | 53.18262 | 37862 ft | 485 kts | 218° |
| 2026-04-22 15:35 | 14.77688 | 53.14605 | 37864 ft | 485 kts | 218° |
| 2026-04-22 15:36 | 14.71951 | 53.10952 | 37860 ft | 485 kts | 218° |
| 2026-04-22 15:36 | 14.66207 | 53.07297 | 37860 ft | 484 kts | 217° |
| 2026-04-22 15:37 | 14.60480 | 53.03632 | 37856 ft | 484 kts | 218° |
| 2026-04-22 15:37 | 14.54799 | 52.99977 | 37867 ft | 484 kts | 218° |
| 2026-04-22 15:38 | 14.49227 | 52.96394 | 37857 ft | 484 kts | 218° |
| 2026-04-22 15:38 | 14.40644 | 52.90884 | 37856 ft | 484 kts | 218° |
| 2026-04-22 15:39 | 14.34922 | 52.87216 | 37857 ft | 484 kts | 218° |
| 2026-04-22 15:39 | 14.29197 | 52.83547 | 37846 ft | 484 kts | 217° |
| 2026-04-22 15:40 | 14.23475 | 52.79882 | 37862 ft | 484 kts | 217° |
| 2026-04-22 15:40 | 14.17743 | 52.76213 | 37860 ft | 485 kts | 217° |
| 2026-04-22 15:41 | 14.12015 | 52.72549 | 37860 ft | 485 kts | 217° |
| 2026-04-22 15:41 | 14.06279 | 52.68883 | 37860 ft | 485 kts | 217° |
| 2026-04-22 15:42 | 14.00549 | 52.65221 | 37858 ft | 485 kts | 217° |
| 2026-04-22 15:42 | 13.94825 | 52.61567 | 37853 ft | 485 kts | 217° |
| 2026-04-22 15:43 | 13.89093 | 52.57909 | 37858 ft | 485 kts | 217° |
| 2026-04-22 15:43 | 13.83401 | 52.54278 | 37855 ft | 485 kts | 217° |
| 2026-04-22 15:44 | 13.77667 | 52.50623 | 37855 ft | 485 kts | 217° |
| 2026-04-22 15:44 | 13.71933 | 52.46971 | 37854 ft | 484 kts | 217° |
| 2026-04-22 15:45 | 13.66206 | 52.43324 | 37848 ft | 484 kts | 217° |
| 2026-04-22 15:45 | 13.60475 | 52.39677 | 37856 ft | 484 kts | 217° |
| 2026-04-22 15:46 | 13.54752 | 52.36038 | 37854 ft | 484 kts | 217° |
| 2026-04-22 15:46 | 13.49024 | 52.32397 | 37855 ft | 484 kts | 217° |
| 2026-04-22 15:47 | 13.43299 | 52.28758 | 37855 ft | 484 kts | 217° |
| 2026-04-22 15:47 | 13.37574 | 52.25124 | 37852 ft | 484 kts | 217° |
| 2026-04-22 15:48 | 13.31842 | 52.21500 | 37847 ft | 484 kts | 216° |
| 2026-04-22 15:48 | 13.26113 | 52.17884 | 37850 ft | 483 kts | 216° |
| 2026-04-22 15:49 | 13.20414 | 52.14287 | 37852 ft | 484 kts | 216° |
| 2026-04-22 15:49 | 13.14683 | 52.10669 | 37853 ft | 484 kts | 216° |
| 2026-04-22 15:50 | 13.08946 | 52.07049 | 37849 ft | 484 kts | 216° |
| 2026-04-22 15:50 | 13.03214 | 52.03435 | 37846 ft | 484 kts | 216° |
| 2026-04-22 15:51 | 12.97619 | 51.99908 | 37842 ft | 484 kts | 216° |
| 2026-04-22 15:51 | 12.91922 | 51.96320 | 37839 ft | 484 kts | 216° |
| 2026-04-22 15:52 | 12.86180 | 51.92705 | 37852 ft | 484 kts | 216° |
| 2026-04-22 15:52 | 12.80441 | 51.89094 | 37845 ft | 484 kts | 216° |
| 2026-04-22 15:53 | 12.74694 | 51.85480 | 37834 ft | 485 kts | 216° |
| 2026-04-22 15:53 | 12.68946 | 51.81867 | 37837 ft | 485 kts | 215° |
| 2026-04-22 15:54 | 12.63197 | 51.78256 | 37849 ft | 485 kts | 215° |
| 2026-04-22 15:54 | 12.57482 | 51.74668 | 37843 ft | 485 kts | 215° |
| 2026-04-22 15:55 | 12.51732 | 51.71060 | 37846 ft | 485 kts | 215° |
| 2026-04-22 15:55 | 12.45979 | 51.67452 | 37842 ft | 485 kts | 215° |
| 2026-04-22 15:56 | 12.40230 | 51.63848 | 37846 ft | 485 kts | 215° |
| 2026-04-22 15:56 | 12.34481 | 51.60245 | 37839 ft | 484 kts | 215° |
| 2026-04-22 15:57 | 12.28736 | 51.56648 | 37841 ft | 484 kts | 215° |
| 2026-04-22 15:57 | 12.22997 | 51.53056 | 37838 ft | 483 kts | 215° |
| 2026-04-22 15:58 | 12.17267 | 51.49471 | 37840 ft | 483 kts | 215° |
| 2026-04-22 15:58 | 12.11545 | 51.45892 | 37838 ft | 482 kts | 215° |
| 2026-04-22 15:59 | 12.05818 | 51.42312 | 37842 ft | 482 kts | 215° |
| 2026-04-22 15:59 | 12.00095 | 51.38737 | 37840 ft | 482 kts | 215° |
| 2026-04-22 16:00 | 11.95357 | 51.35778 | 37845 ft | 482 kts | 215° |
| 2026-04-22 16:00 | 11.88663 | 51.31597 | 37852 ft | 482 kts | 215° |
| 2026-04-22 16:01 | 11.82940 | 51.28023 | 37847 ft | 482 kts | 215° |
| 2026-04-22 16:01 | 11.77216 | 51.24450 | 37843 ft | 482 kts | 215° |
| 2026-04-22 16:02 | 11.71496 | 51.20883 | 37856 ft | 481 kts | 215° |
| 2026-04-22 16:02 | 11.65789 | 51.17324 | 37856 ft | 481 kts | 215° |
| 2026-04-22 16:03 | 11.60082 | 51.13767 | 37864 ft | 480 kts | 215° |
| 2026-04-22 16:03 | 11.54424 | 51.10243 | 37864 ft | 480 kts | 215° |
| 2026-04-22 16:04 | 11.48734 | 51.06700 | 37869 ft | 479 kts | 215° |
| 2026-04-22 16:04 | 11.43046 | 51.03159 | 37878 ft | 479 kts | 215° |
| 2026-04-22 16:05 | 11.37541 | 50.99735 | 37875 ft | 478 kts | 215° |
| 2026-04-22 16:05 | 11.31868 | 50.96202 | 37886 ft | 477 kts | 215° |
| 2026-04-22 16:06 | 11.26218 | 50.92680 | 37891 ft | 476 kts | 215° |
| 2026-04-22 16:06 | 11.20566 | 50.89162 | 37889 ft | 476 kts | 215° |
| 2026-04-22 16:07 | 11.14912 | 50.85643 | 37890 ft | 476 kts | 215° |
| 2026-04-22 16:07 | 11.09259 | 50.82127 | 37884 ft | 476 kts | 215° |
| 2026-04-22 16:08 | 11.03609 | 50.78614 | 37890 ft | 476 kts | 215° |
| 2026-04-22 16:08 | 10.98006 | 50.75132 | 37883 ft | 476 kts | 215° |
| 2026-04-22 16:09 | 10.92360 | 50.71624 | 37883 ft | 476 kts | 215° |
| 2026-04-22 16:09 | 10.86710 | 50.68116 | 37889 ft | 476 kts | 215° |
| 2026-04-22 16:10 | 10.81063 | 50.64612 | 37885 ft | 475 kts | 215° |
| 2026-04-22 16:10 | 10.75414 | 50.61107 | 37878 ft | 475 kts | 215° |
| 2026-04-22 16:11 | 10.69769 | 50.57606 | 37888 ft | 475 kts | 215° |
| 2026-04-22 16:11 | 10.64118 | 50.54104 | 37887 ft | 475 kts | 215° |
| 2026-04-22 16:12 | 10.58473 | 50.50607 | 37885 ft | 475 kts | 215° |
| 2026-04-22 16:12 | 10.52820 | 50.47106 | 37881 ft | 476 kts | 215° |
| 2026-04-22 16:13 | 10.47169 | 50.43608 | 37878 ft | 476 kts | 215° |
| 2026-04-22 16:13 | 10.41505 | 50.40103 | 37882 ft | 476 kts | 215° |
| 2026-04-22 16:14 | 10.36800 | 50.37193 | 37886 ft | 477 kts | 215° |
| 2026-04-22 16:14 | 10.30210 | 50.33119 | 37882 ft | 477 kts | 215° |
| 2026-04-22 16:15 | 10.24537 | 50.29613 | 37884 ft | 478 kts | 215° |
| 2026-04-22 16:15 | 10.19774 | 50.26671 | 37882 ft | 478 kts | 215° |
| 2026-04-22 16:16 | 10.14090 | 50.23162 | 37884 ft | 478 kts | 215° |
| 2026-04-22 16:16 | 10.08401 | 50.19650 | 37888 ft | 479 kts | 214° |
| 2026-04-22 16:17 | 10.02739 | 50.16157 | 37888 ft | 480 kts | 214° |
| 2026-04-22 16:17 | 9.97052 | 50.12650 | 37888 ft | 480 kts | 214° |
| 2026-04-22 16:18 | 9.91341 | 50.09130 | 37890 ft | 480 kts | 214° |
| 2026-04-22 16:18 | 9.85633 | 50.05612 | 37889 ft | 480 kts | 214° |
| 2026-04-22 16:19 | 9.79924 | 50.02096 | 37891 ft | 480 kts | 214° |
| 2026-04-22 16:19 | 9.74395 | 49.98692 | 37891 ft | 480 kts | 214° |
| 2026-04-22 16:20 | 9.68684 | 49.95177 | 37890 ft | 480 kts | 214° |
| 2026-04-22 16:20 | 9.62965 | 49.91659 | 37891 ft | 481 kts | 214° |
| 2026-04-22 16:21 | 9.57247 | 49.88142 | 37888 ft | 481 kts | 214° |
| 2026-04-22 16:21 | 9.51525 | 49.84625 | 37882 ft | 481 kts | 214° |
| 2026-04-22 16:22 | 9.42938 | 49.79349 | 37884 ft | 481 kts | 214° |
| 2026-04-22 16:23 | 9.34345 | 49.74072 | 37882 ft | 481 kts | 214° |
| 2026-04-22 16:23 | 9.28652 | 49.70576 | 37881 ft | 482 kts | 214° |
| 2026-04-22 16:24 | 9.20055 | 49.65304 | 37878 ft | 482 kts | 214° |
| 2026-04-22 16:25 | 9.14314 | 49.61793 | 37881 ft | 482 kts | 214° |
| 2026-04-22 16:25 | 9.05702 | 49.56527 | 37877 ft | 483 kts | 214° |
| 2026-04-22 16:26 | 8.99968 | 49.53021 | 37882 ft | 483 kts | 214° |
| 2026-04-22 16:26 | 8.94215 | 49.49504 | 37875 ft | 483 kts | 214° |
| 2026-04-22 16:27 | 8.88463 | 49.45990 | 37876 ft | 483 kts | 214° |
| 2026-04-22 16:27 | 8.82708 | 49.42475 | 37872 ft | 483 kts | 214° |
| 2026-04-22 16:28 | 8.76951 | 49.38960 | 37872 ft | 484 kts | 214° |
| 2026-04-22 16:28 | 8.71190 | 49.35443 | 37872 ft | 484 kts | 214° |
| 2026-04-22 16:29 | 8.65428 | 49.31926 | 37870 ft | 484 kts | 214° |
| 2026-04-22 16:29 | 8.59667 | 49.28414 | 37861 ft | 484 kts | 214° |
| 2026-04-22 16:30 | 8.53896 | 49.24898 | 37858 ft | 484 kts | 214° |
| 2026-04-22 16:30 | 8.48166 | 49.21406 | 37857 ft | 484 kts | 214° |
| 2026-04-22 16:31 | 8.42391 | 49.17887 | 37863 ft | 485 kts | 214° |
| 2026-04-22 16:31 | 8.36613 | 49.14368 | 37856 ft | 485 kts | 214° |
| 2026-04-22 16:32 | 8.30838 | 49.10851 | 37859 ft | 485 kts | 214° |
| 2026-04-22 16:32 | 8.25058 | 49.07333 | 37858 ft | 485 kts | 214° |
| 2026-04-22 16:33 | 8.19280 | 49.03818 | 37859 ft | 484 kts | 214° |
| 2026-04-22 16:33 | 8.13511 | 49.00309 | 37863 ft | 484 kts | 214° |
| 2026-04-22 16:34 | 8.07932 | 48.96916 | 37867 ft | 483 kts | 214° |
| 2026-04-22 16:34 | 8.02170 | 48.93414 | 37867 ft | 483 kts | 214° |
| 2026-04-22 16:35 | 7.96427 | 48.89924 | 37870 ft | 483 kts | 214° |
| 2026-04-22 16:35 | 7.90677 | 48.86431 | 37870 ft | 483 kts | 214° |
| 2026-04-22 16:36 | 7.84964 | 48.82962 | 37874 ft | 482 kts | 214° |
| 2026-04-22 16:36 | 7.79180 | 48.79451 | 37871 ft | 482 kts | 214° |
| 2026-04-22 16:37 | 7.73468 | 48.75984 | 37887 ft | 482 kts | 214° |
| 2026-04-22 16:37 | 7.67721 | 48.72498 | 37865 ft | 483 kts | 214° |
| 2026-04-22 16:38 | 7.61968 | 48.69008 | 37857 ft | 483 kts | 214° |
| 2026-04-22 16:38 | 7.56207 | 48.65515 | 37863 ft | 483 kts | 214° |
| 2026-04-22 16:39 | 7.50446 | 48.62023 | 37851 ft | 483 kts | 214° |
| 2026-04-22 16:39 | 7.44684 | 48.58532 | 37852 ft | 484 kts | 214° |
| 2026-04-22 16:40 | 7.38917 | 48.55037 | 37862 ft | 483 kts | 213° |
| 2026-04-22 16:41 | 7.30278 | 48.49782 | 37862 ft | 483 kts | 214° |
| 2026-04-22 16:41 | 7.24550 | 48.46242 | 37844 ft | 483 kts | 214° |
| 2026-04-22 16:42 | 7.18823 | 48.42699 | 37839 ft | 482 kts | 214° |
| 2026-04-22 16:42 | 7.13138 | 48.39189 | 37835 ft | 482 kts | 214° |
| 2026-04-22 16:43 | 7.07417 | 48.35662 | 37853 ft | 482 kts | 214° |
| 2026-04-22 16:43 | 7.01696 | 48.32136 | 37847 ft | 482 kts | 214° |
| 2026-04-22 16:44 | 6.95986 | 48.28619 | 37831 ft | 482 kts | 214° |
| 2026-04-22 16:44 | 6.90269 | 48.25098 | 37850 ft | 482 kts | 214° |
| 2026-04-22 16:45 | 6.84552 | 48.21577 | 37849 ft | 482 kts | 214° |
| 2026-04-22 16:45 | 6.78831 | 48.18056 | 37839 ft | 482 kts | 214° |
| 2026-04-22 16:46 | 6.73105 | 48.14531 | 37822 ft | 482 kts | 214° |
| 2026-04-22 16:46 | 6.67380 | 48.11009 | 37840 ft | 483 kts | 213° |
| 2026-04-22 16:47 | 6.61646 | 48.07482 | 37838 ft | 483 kts | 214° |
| 2026-04-22 16:47 | 6.56879 | 48.04551 | 37832 ft | 483 kts | 214° |
| 2026-04-22 16:48 | 6.50176 | 48.00430 | 37834 ft | 483 kts | 214° |
| 2026-04-22 16:48 | 6.44610 | 47.97009 | 37838 ft | 484 kts | 214° |
| 2026-04-22 16:49 | 6.38867 | 47.93481 | 37830 ft | 484 kts | 214° |
| 2026-04-22 16:49 | 6.33112 | 47.89945 | 37828 ft | 485 kts | 214° |
| 2026-04-22 16:50 | 6.27358 | 47.86412 | 37825 ft | 485 kts | 214° |
| 2026-04-22 16:50 | 6.21641 | 47.82903 | 37827 ft | 485 kts | 213° |
| 2026-04-22 16:51 | 6.15878 | 47.79365 | 37831 ft | 485 kts | 213° |
| 2026-04-22 16:51 | 6.10110 | 47.75826 | 37827 ft | 485 kts | 213° |
| 2026-04-22 16:52 | 6.04346 | 47.72290 | 37825 ft | 486 kts | 214° |
| 2026-04-22 16:52 | 5.98587 | 47.68758 | 37826 ft | 486 kts | 214° |
| 2026-04-22 16:53 | 5.92818 | 47.65220 | 37830 ft | 486 kts | 214° |
| 2026-04-22 16:53 | 5.87046 | 47.61682 | 37827 ft | 486 kts | 213° |
| 2026-04-22 16:54 | 5.81274 | 47.58144 | 37824 ft | 486 kts | 213° |
| 2026-04-22 16:54 | 5.75540 | 47.54631 | 37822 ft | 486 kts | 214° |
| 2026-04-22 16:55 | 5.69765 | 47.51091 | 37823 ft | 486 kts | 213° |
| 2026-04-22 16:55 | 5.63994 | 47.47561 | 37825 ft | 486 kts | 213° |
| 2026-04-22 16:56 | 5.58199 | 47.44058 | 37823 ft | 486 kts | 213° |
| 2026-04-22 16:56 | 5.52397 | 47.40563 | 37824 ft | 486 kts | 212° |
| 2026-04-22 16:57 | 5.46598 | 47.37066 | 37821 ft | 486 kts | 213° |
| 2026-04-22 16:57 | 5.40801 | 47.33567 | 37822 ft | 486 kts | 214° |
| 2026-04-22 16:58 | 5.35981 | 47.30657 | 37825 ft | 487 kts | 213° |
| 2026-04-22 16:58 | 5.29197 | 47.26562 | 37824 ft | 487 kts | 214° |
| 2026-04-22 16:59 | 5.23394 | 47.23061 | 37822 ft | 486 kts | 213° |
| 2026-04-22 16:59 | 5.17599 | 47.19566 | 37824 ft | 486 kts | 214° |
| 2026-04-22 17:00 | 5.11842 | 47.16093 | 37819 ft | 486 kts | 214° |
| 2026-04-22 17:00 | 5.03157 | 47.10857 | 37818 ft | 486 kts | 214° |
| 2026-04-22 17:01 | 4.97379 | 47.07373 | 37827 ft | 486 kts | 214° |
| 2026-04-22 17:01 | 4.91587 | 47.03881 | 37821 ft | 486 kts | 213° |
| 2026-04-22 17:02 | 4.85792 | 47.00390 | 37826 ft | 486 kts | 213° |
| 2026-04-22 17:02 | 4.80177 | 46.97007 | 37828 ft | 486 kts | 214° |
| 2026-04-22 17:03 | 4.74375 | 46.93512 | 37829 ft | 487 kts | 213° |
| 2026-04-22 17:03 | 4.68568 | 46.90016 | 37832 ft | 487 kts | 214° |
| 2026-04-22 17:04 | 4.63739 | 46.87109 | 37829 ft | 487 kts | 213° |
| 2026-04-22 17:04 | 4.57923 | 46.83607 | 37827 ft | 487 kts | 214° |
| 2026-04-22 17:05 | 4.52119 | 46.80113 | 37829 ft | 487 kts | 214° |
| 2026-04-22 17:05 | 4.46312 | 46.76619 | 37831 ft | 487 kts | 214° |
| 2026-04-22 17:06 | 4.40501 | 46.73122 | 37837 ft | 487 kts | 213° |
| 2026-04-22 17:06 | 4.34696 | 46.69630 | 37832 ft | 487 kts | 213° |
| 2026-04-22 17:07 | 4.28889 | 46.66138 | 37833 ft | 487 kts | 213° |
| 2026-04-22 17:07 | 4.23119 | 46.62669 | 37833 ft | 487 kts | 213° |
| 2026-04-22 17:08 | 4.17320 | 46.59182 | 37836 ft | 486 kts | 213° |
| 2026-04-22 17:08 | 4.11513 | 46.55691 | 37833 ft | 486 kts | 213° |
| 2026-04-22 17:09 | 4.05718 | 46.52209 | 37835 ft | 486 kts | 213° |
| 2026-04-22 17:09 | 3.99935 | 46.48733 | 37833 ft | 486 kts | 213° |
| 2026-04-22 17:10 | 3.94132 | 46.45247 | 37838 ft | 486 kts | 213° |
| 2026-04-22 17:10 | 3.88342 | 46.41769 | 37838 ft | 485 kts | 213° |
| 2026-04-22 17:11 | 3.82542 | 46.38285 | 37842 ft | 486 kts | 213° |
| 2026-04-22 17:11 | 3.76751 | 46.34807 | 37838 ft | 486 kts | 213° |
| 2026-04-22 17:12 | 3.70955 | 46.31327 | 37845 ft | 486 kts | 213° |
| 2026-04-22 17:12 | 3.65163 | 46.27850 | 37846 ft | 486 kts | 213° |
| 2026-04-22 17:13 | 3.59365 | 46.24370 | 37848 ft | 486 kts | 213° |
| 2026-04-22 17:13 | 3.53570 | 46.20892 | 37847 ft | 486 kts | 213° |
| 2026-04-22 17:14 | 3.47777 | 46.17416 | 37850 ft | 486 kts | 213° |
| 2026-04-22 17:14 | 3.41980 | 46.13937 | 37851 ft | 486 kts | 213° |
| 2026-04-22 17:15 | 3.36187 | 46.10462 | 37857 ft | 485 kts | 213° |
| 2026-04-22 17:15 | 3.30390 | 46.06985 | 37856 ft | 485 kts | 213° |
| 2026-04-22 17:16 | 3.24598 | 46.03512 | 37856 ft | 485 kts | 213° |
| 2026-04-22 17:16 | 3.18843 | 46.00060 | 37855 ft | 485 kts | 213° |
| 2026-04-22 17:17 | 3.13229 | 45.96695 | 37859 ft | 485 kts | 212° |
| 2026-04-22 17:17 | 3.07433 | 45.93220 | 37853 ft | 485 kts | 213° |
| 2026-04-22 17:18 | 3.01645 | 45.89751 | 37854 ft | 485 kts | 213° |
| 2026-04-22 17:18 | 2.95874 | 45.86292 | 37860 ft | 485 kts | 212° |
| 2026-04-22 17:19 | 2.84294 | 45.79353 | 37855 ft | 485 kts | 213° |
| 2026-04-22 17:20 | 2.72714 | 45.72415 | 37860 ft | 485 kts | 212° |
| 2026-04-22 17:21 | 2.64027 | 45.67212 | 37851 ft | 485 kts | 212° |
| 2026-04-22 17:22 | 2.55344 | 45.62012 | 37856 ft | 484 kts | 212° |
| 2026-04-22 17:23 | 2.46675 | 45.56821 | 37862 ft | 484 kts | 212° |
| 2026-04-22 17:23 | 2.38045 | 45.51654 | 37857 ft | 484 kts | 212° |
| 2026-04-22 17:24 | 2.32268 | 45.48196 | 37860 ft | 484 kts | 212° |
| 2026-04-22 17:24 | 2.26489 | 45.44737 | 37860 ft | 484 kts | 212° |
| 2026-04-22 17:25 | 2.20712 | 45.41279 | 37861 ft | 484 kts | 212° |
| 2026-04-22 17:25 | 2.14941 | 45.37824 | 37864 ft | 483 kts | 212° |
| 2026-04-22 17:26 | 2.09169 | 45.34370 | 37860 ft | 483 kts | 212° |
| 2026-04-22 17:26 | 2.03402 | 45.30918 | 37861 ft | 483 kts | 212° |
| 2026-04-22 17:27 | 1.97736 | 45.27376 | 37860 ft | 481 kts | 215° |
| 2026-04-22 17:27 | 1.92185 | 45.23625 | 37860 ft | 481 kts | 216° |
| 2026-04-22 17:28 | 1.86649 | 45.19852 | 37860 ft | 481 kts | 216° |
| 2026-04-22 17:28 | 1.81147 | 45.16124 | 37860 ft | 481 kts | 215° |
| 2026-04-22 17:29 | 1.75562 | 45.12358 | 37865 ft | 481 kts | 215° |
| 2026-04-22 17:29 | 1.70046 | 45.08642 | 37861 ft | 481 kts | 216° |
| 2026-04-22 17:30 | 1.64497 | 45.04904 | 37867 ft | 481 kts | 216° |
| 2026-04-22 17:30 | 1.58947 | 45.01165 | 37865 ft | 481 kts | 215° |
| 2026-04-22 17:31 | 1.53577 | 44.97546 | 37868 ft | 481 kts | 214° |
| 2026-04-22 17:31 | 1.48028 | 44.93807 | 37865 ft | 480 kts | 216° |
| 2026-04-22 17:32 | 1.42490 | 44.90076 | 37865 ft | 480 kts | 216° |
| 2026-04-22 17:32 | 1.36952 | 44.86345 | 37868 ft | 480 kts | 215° |
| 2026-04-22 17:33 | 1.31408 | 44.82610 | 37870 ft | 480 kts | 216° |
| 2026-04-22 17:33 | 1.25871 | 44.78880 | 37868 ft | 480 kts | 215° |
| 2026-04-22 17:34 | 1.20333 | 44.75150 | 37868 ft | 480 kts | 215° |
| 2026-04-22 17:34 | 1.14790 | 44.71417 | 37866 ft | 480 kts | 215° |
| 2026-04-22 17:35 | 1.09251 | 44.67686 | 37868 ft | 480 kts | 216° |
| 2026-04-22 17:35 | 1.03708 | 44.63953 | 37872 ft | 481 kts | 215° |
| 2026-04-22 17:36 | 0.98170 | 44.60223 | 37868 ft | 481 kts | 216° |
| 2026-04-22 17:36 | 0.92627 | 44.56490 | 37876 ft | 481 kts | 215° |
| 2026-04-22 17:37 | 0.87110 | 44.52774 | 37872 ft | 481 kts | 216° |
| 2026-04-22 17:37 | 0.81562 | 44.49039 | 37877 ft | 481 kts | 216° |
| 2026-04-22 17:38 | 0.76008 | 44.45299 | 37874 ft | 481 kts | 216° |
| 2026-04-22 17:38 | 0.70453 | 44.41558 | 37876 ft | 482 kts | 216° |
| 2026-04-22 17:39 | 0.64893 | 44.37814 | 37874 ft | 482 kts | 215° |
| 2026-04-22 17:40 | 0.56545 | 44.32193 | 37880 ft | 482 kts | 215° |
| 2026-04-22 17:40 | 0.50988 | 44.28452 | 37877 ft | 482 kts | 214° |
| 2026-04-22 17:41 | 0.45436 | 44.24713 | 37879 ft | 481 kts | 215° |
| 2026-04-22 17:41 | 0.39879 | 44.20971 | 37875 ft | 481 kts | 215° |
| 2026-04-22 17:42 | 0.34333 | 44.17236 | 37871 ft | 481 kts | 215° |
| 2026-04-22 17:42 | 0.29722 | 44.14129 | 37884 ft | 481 kts | 216° |
| 2026-04-22 17:43 | 0.23240 | 44.09744 | 37883 ft | 481 kts | 216° |
| 2026-04-22 17:43 | 0.17695 | 44.05989 | 37888 ft | 481 kts | 216° |
| 2026-04-22 17:44 | 0.12184 | 44.02259 | 37887 ft | 482 kts | 216° |
| 2026-04-22 17:44 | 0.06803 | 43.98617 | 37885 ft | 482 kts | 215° |
| 2026-04-22 17:45 | 0.01253 | 43.94862 | 37885 ft | 482 kts | 216° |
| 2026-04-22 17:45 | -0.04284 | 43.91115 | 37888 ft | 482 kts | 216° |
| 2026-04-22 17:46 | -0.09834 | 43.87360 | 37885 ft | 481 kts | 215° |
| 2026-04-22 17:46 | -0.15373 | 43.83611 | 37885 ft | 481 kts | 216° |
| 2026-04-22 17:47 | -0.20914 | 43.79862 | 37885 ft | 481 kts | 215° |
| 2026-04-22 17:47 | -0.26446 | 43.76119 | 37887 ft | 480 kts | 216° |
| 2026-04-22 17:48 | -0.31046 | 43.73006 | 37894 ft | 480 kts | 216° |
| 2026-04-22 17:48 | -0.37516 | 43.68627 | 37889 ft | 480 kts | 216° |
| 2026-04-22 17:49 | -0.43055 | 43.64879 | 37893 ft | 480 kts | 216° |
| 2026-04-22 17:49 | -0.48588 | 43.61134 | 37896 ft | 480 kts | 216° |
| 2026-04-22 17:50 | -0.54120 | 43.57390 | 37895 ft | 480 kts | 216° |
| 2026-04-22 17:50 | -0.59660 | 43.53641 | 37892 ft | 480 kts | 216° |
| 2026-04-22 17:51 | -0.65191 | 43.49898 | 37889 ft | 480 kts | 216° |
| 2026-04-22 17:51 | -0.70716 | 43.46159 | 37893 ft | 480 kts | 216° |
| 2026-04-22 17:52 | -0.75312 | 43.43048 | 37893 ft | 480 kts | 216° |
| 2026-04-22 17:52 | -0.81733 | 43.38702 | 37897 ft | 479 kts | 216° |
| 2026-04-22 17:53 | -0.86358 | 43.35572 | 37902 ft | 479 kts | 216° |
| 2026-04-22 17:53 | -0.91872 | 43.31839 | 37898 ft | 478 kts | 216° |
| 2026-04-22 17:54 | -0.97380 | 43.28110 | 37898 ft | 478 kts | 216° |
| 2026-04-22 17:54 | -1.02868 | 43.24395 | 37898 ft | 478 kts | 216° |
| 2026-04-22 17:55 | -1.08369 | 43.20671 | 37896 ft | 477 kts | 216° |
| 2026-04-22 17:55 | -1.13860 | 43.16954 | 37900 ft | 477 kts | 215° |
| 2026-04-22 17:56 | -1.19357 | 43.13232 | 37893 ft | 477 kts | 215° |
| 2026-04-22 17:56 | -1.24848 | 43.09514 | 37901 ft | 476 kts | 215° |
| 2026-04-22 17:57 | -1.30296 | 43.05826 | 37902 ft | 476 kts | 215° |
| 2026-04-22 17:57 | -1.35792 | 43.02104 | 37909 ft | 477 kts | 215° |
| 2026-04-22 17:58 | -1.41064 | 42.98534 | 37908 ft | 476 kts | 215° |
| 2026-04-22 17:58 | -1.46551 | 42.94818 | 37907 ft | 476 kts | 214° |
| 2026-04-22 17:59 | -1.52034 | 42.91105 | 37904 ft | 475 kts | 215° |
| 2026-04-22 17:59 | -1.57506 | 42.87398 | 37901 ft | 475 kts | 214° |
| 2026-04-22 18:00 | -1.62045 | 42.84324 | 37903 ft | 475 kts | 214° |
| 2026-04-22 18:00 | -1.68437 | 42.79993 | 37917 ft | 474 kts | 214° |
| 2026-04-22 18:01 | -1.73897 | 42.76295 | 37905 ft | 474 kts | 214° |
| 2026-04-22 18:01 | -1.79358 | 42.72595 | 37901 ft | 474 kts | 214° |
| 2026-04-22 18:02 | -1.84822 | 42.68893 | 37906 ft | 474 kts | 214° |
| 2026-04-22 18:02 | -1.90278 | 42.65195 | 37908 ft | 474 kts | 214° |
| 2026-04-22 18:03 | -1.95749 | 42.61486 | 37908 ft | 474 kts | 214° |
| 2026-04-22 18:03 | -2.01162 | 42.57816 | 37905 ft | 475 kts | 215° |
| 2026-04-22 18:04 | -2.06607 | 42.54050 | 37903 ft | 477 kts | 215° |
| 2026-04-22 18:04 | -2.12051 | 42.50262 | 37910 ft | 478 kts | 215° |
| 2026-04-22 18:05 | -2.17518 | 42.46469 | 37914 ft | 478 kts | 216° |
| 2026-04-22 18:05 | -2.22983 | 42.42671 | 37911 ft | 478 kts | 216° |
| 2026-04-22 18:06 | -2.26501 | 42.40119 | 37905 ft | 477 kts | 217° |
| 2026-04-22 18:06 | -2.31767 | 42.36203 | 37910 ft | 476 kts | 218° |
| 2026-04-22 18:07 | -2.37076 | 42.32254 | 37915 ft | 475 kts | 217° |
| 2026-04-22 18:07 | -2.42388 | 42.28325 | 37906 ft | 474 kts | 217° |
| 2026-04-22 18:08 | -2.47588 | 42.24489 | 37909 ft | 475 kts | 217° |
| 2026-04-22 18:08 | -2.52901 | 42.20572 | 37910 ft | 475 kts | 217° |
| 2026-04-22 18:09 | -2.58218 | 42.16651 | 37916 ft | 475 kts | 217° |
| 2026-04-22 18:09 | -2.63533 | 42.12731 | 37912 ft | 474 kts | 217° |
| 2026-04-22 18:10 | -2.68847 | 42.08810 | 37915 ft | 474 kts | 217° |
| 2026-04-22 18:10 | -2.74153 | 42.04895 | 37891 ft | 474 kts | 217° |
| 2026-04-22 18:11 | -2.79453 | 42.00984 | 37910 ft | 473 kts | 217° |
| 2026-04-22 18:11 | -2.84518 | 41.97246 | 37920 ft | 474 kts | 217° |
| 2026-04-22 18:12 | -2.89831 | 41.93324 | 37912 ft | 475 kts | 217° |
| 2026-04-22 18:12 | -2.94298 | 41.90026 | 37905 ft | 477 kts | 217° |
| 2026-04-22 18:13 | -3.00500 | 41.85447 | 37916 ft | 478 kts | 217° |
| 2026-04-22 18:13 | -3.05862 | 41.81488 | 37915 ft | 479 kts | 217° |
| 2026-04-22 18:14 | -3.11224 | 41.77528 | 37920 ft | 478 kts | 217° |
| 2026-04-22 18:14 | -3.16576 | 41.73575 | 37917 ft | 478 kts | 217° |
| 2026-04-22 18:15 | -3.21921 | 41.69628 | 37899 ft | 477 kts | 217° |
| 2026-04-22 18:15 | -3.27256 | 41.65686 | 37917 ft | 477 kts | 217° |
| 2026-04-22 18:16 | -3.32588 | 41.61746 | 37916 ft | 476 kts | 217° |
| 2026-04-22 18:16 | -3.37931 | 41.57798 | 37921 ft | 476 kts | 217° |
| 2026-04-22 18:17 | -3.43268 | 41.53854 | 37919 ft | 477 kts | 217° |
| 2026-04-22 18:17 | -3.48614 | 41.49902 | 37910 ft | 479 kts | 217° |
| 2026-04-22 18:18 | -3.53981 | 41.45933 | 37919 ft | 480 kts | 217° |
| 2026-04-22 18:18 | -3.59362 | 41.41954 | 37922 ft | 481 kts | 217° |
| 2026-04-22 18:19 | -3.64751 | 41.37969 | 37920 ft | 481 kts | 217° |
| 2026-04-22 18:19 | -3.70141 | 41.33982 | 37915 ft | 482 kts | 217° |
| 2026-04-22 18:20 | -3.75527 | 41.29999 | 37916 ft | 481 kts | 217° |
| 2026-04-22 18:20 | -3.80865 | 41.26048 | 37917 ft | 480 kts | 217° |
| 2026-04-22 18:21 | -3.86224 | 41.22083 | 37921 ft | 479 kts | 217° |
| 2026-04-22 18:21 | -3.91583 | 41.18115 | 37921 ft | 478 kts | 217° |
| 2026-04-22 18:22 | -3.96933 | 41.14155 | 37918 ft | 478 kts | 217° |
| 2026-04-22 18:22 | -4.02382 | 41.10440 | 37926 ft | 478 kts | 212° |
| 2026-04-22 18:23 | -4.08085 | 41.06994 | 37915 ft | 479 kts | 211° |
| 2026-04-22 18:23 | -4.13807 | 41.03554 | 37925 ft | 479 kts | 211° |
| 2026-04-22 18:24 | -4.22175 | 40.98471 | 37919 ft | 479 kts | 211° |
| 2026-04-22 18:25 | -4.30679 | 40.93284 | 37919 ft | 479 kts | 211° |
| 2026-04-22 18:25 | -4.36370 | 40.89812 | 37913 ft | 479 kts | 212° |
| 2026-04-22 18:26 | -4.44932 | 40.84590 | 37925 ft | 481 kts | 212° |
| 2026-04-22 18:26 | -4.50653 | 40.81100 | 37922 ft | 482 kts | 212° |
| 2026-04-22 18:27 | -4.56394 | 40.77597 | 37924 ft | 483 kts | 212° |
| 2026-04-22 18:27 | -4.62130 | 40.74096 | 37918 ft | 483 kts | 212° |
| 2026-04-22 18:28 | -4.67868 | 40.70593 | 37922 ft | 483 kts | 212° |
| 2026-04-22 18:28 | -4.73598 | 40.67094 | 37917 ft | 482 kts | 212° |
| 2026-04-22 18:29 | -4.79321 | 40.63599 | 37923 ft | 481 kts | 213° |
| 2026-04-22 18:29 | -4.84849 | 40.59844 | 37928 ft | 479 kts | 219° |
| 2026-04-22 18:30 | -4.92662 | 40.53602 | 37931 ft | 479 kts | 219° |
| 2026-04-22 18:31 | -4.97880 | 40.49460 | 37932 ft | 477 kts | 219° |
| 2026-04-22 18:31 | -5.03088 | 40.45353 | 37923 ft | 476 kts | 219° |
| 2026-04-22 18:32 | -5.07411 | 40.41944 | 37921 ft | 475 kts | 219° |
| 2026-04-22 18:32 | -5.13544 | 40.37241 | 37903 ft | 475 kts | 215° |
| 2026-04-22 18:33 | -5.19050 | 40.33560 | 37923 ft | 476 kts | 214° |
| 2026-04-22 18:33 | -5.24587 | 40.29911 | 37935 ft | 476 kts | 214° |
| 2026-04-22 18:34 | -5.30119 | 40.26241 | 37925 ft | 476 kts | 214° |
| 2026-04-22 18:34 | -5.35625 | 40.22567 | 37918 ft | 475 kts | 214° |
| 2026-04-22 18:35 | -5.41079 | 40.18921 | 37928 ft | 474 kts | 215° |
| 2026-04-22 18:35 | -5.46567 | 40.15252 | 37927 ft | 474 kts | 215° |
| 2026-04-22 18:36 | -5.52049 | 40.11587 | 37934 ft | 474 kts | 214° |
| 2026-04-22 18:36 | -5.57531 | 40.07922 | 37934 ft | 474 kts | 214° |
| 2026-04-22 18:37 | -5.63021 | 40.04251 | 37933 ft | 474 kts | 214° |
| 2026-04-22 18:37 | -5.67580 | 40.01201 | 37933 ft | 474 kts | 214° |
| 2026-04-22 18:38 | -5.73809 | 39.97033 | 37935 ft | 474 kts | 214° |
| 2026-04-22 18:38 | -5.78374 | 39.93979 | 37931 ft | 475 kts | 214° |
| 2026-04-22 18:39 | -5.86621 | 39.88458 | 37931 ft | 475 kts | 214° |
| 2026-04-22 18:39 | -5.92119 | 39.84777 | 37937 ft | 474 kts | 214° |
| 2026-04-22 18:40 | -5.97607 | 39.81101 | 37932 ft | 474 kts | 214° |
| 2026-04-22 18:40 | -6.03084 | 39.77431 | 37931 ft | 474 kts | 214° |
| 2026-04-22 18:41 | -6.08571 | 39.73754 | 37938 ft | 474 kts | 214° |
| 2026-04-22 18:41 | -6.14060 | 39.70075 | 37931 ft | 474 kts | 214° |
| 2026-04-22 18:42 | -6.19554 | 39.66391 | 37925 ft | 475 kts | 214° |
| 2026-04-22 18:42 | -6.25048 | 39.62706 | 37921 ft | 475 kts | 214° |
| 2026-04-22 18:43 | -6.30533 | 39.59000 | 37912 ft | 475 kts | 214° |
| 2026-04-22 18:43 | -6.36006 | 39.55271 | 37915 ft | 476 kts | 214° |
| 2026-04-22 18:44 | -6.41489 | 39.51535 | 37924 ft | 477 kts | 214° |
| 2026-04-22 18:44 | -6.46985 | 39.47794 | 37926 ft | 478 kts | 214° |
| 2026-04-22 18:45 | -6.52484 | 39.44051 | 37919 ft | 477 kts | 214° |
| 2026-04-22 18:45 | -6.57981 | 39.40308 | 37915 ft | 476 kts | 214° |
| 2026-04-22 18:46 | -6.63418 | 39.36604 | 37922 ft | 475 kts | 214° |
| 2026-04-22 18:46 | -6.68879 | 39.32884 | 37925 ft | 474 kts | 213° |
| 2026-04-22 18:47 | -6.74350 | 39.29155 | 37938 ft | 475 kts | 213° |
| 2026-04-22 18:47 | -6.79825 | 39.25422 | 37947 ft | 476 kts | 213° |
| 2026-04-22 18:48 | -6.85315 | 39.21684 | 37944 ft | 477 kts | 212° |
| 2026-04-22 18:48 | -6.91171 | 39.18581 | 37947 ft | 475 kts | 201° |
| 2026-04-22 18:49 | -6.97433 | 39.16439 | 37947 ft | 475 kts | 197° |
| 2026-04-22 18:49 | -7.03737 | 39.14481 | 37942 ft | 476 kts | 196° |
| 2026-04-22 18:50 | -7.10058 | 39.12496 | 37942 ft | 475 kts | 196° |
| 2026-04-22 18:50 | -7.16364 | 39.10487 | 37944 ft | 475 kts | 196° |
| 2026-04-22 18:51 | -7.22650 | 39.08474 | 37946 ft | 474 kts | 197° |
| 2026-04-22 18:51 | -7.28893 | 39.06472 | 37945 ft | 473 kts | 197° |
| 2026-04-22 18:52 | -7.35159 | 39.04463 | 37949 ft | 472 kts | 196° |
| 2026-04-22 18:52 | -7.41423 | 39.02456 | 37954 ft | 472 kts | 196° |
| 2026-04-22 18:53 | -7.47680 | 39.00450 | 37949 ft | 472 kts | 196° |
| 2026-04-22 18:53 | -7.53738 | 38.98508 | 37952 ft | 471 kts | 196° |
| 2026-04-22 18:54 | -7.59989 | 38.96502 | 37949 ft | 471 kts | 196° |
| 2026-04-22 18:54 | -7.66236 | 38.94498 | 37947 ft | 471 kts | 196° |
| 2026-04-22 18:55 | -7.72489 | 38.92491 | 37954 ft | 471 kts | 196° |
| 2026-04-22 18:55 | -7.78735 | 38.90485 | 37957 ft | 471 kts | 196° |
| 2026-04-22 18:56 | -7.84980 | 38.88480 | 37950 ft | 471 kts | 196° |
| 2026-04-22 18:56 | -7.91224 | 38.86473 | 37951 ft | 471 kts | 196° |
| 2026-04-22 18:57 | -7.97472 | 38.84465 | 37959 ft | 471 kts | 196° |
| 2026-04-22 18:57 | -8.03668 | 38.82473 | 37960 ft | 471 kts | 196° |
| 2026-04-22 18:58 | -8.09958 | 38.80451 | 37963 ft | 471 kts | 196° |
| 2026-04-22 18:58 | -8.16203 | 38.78442 | 37961 ft | 471 kts | 196° |
| 2026-04-22 18:59 | -8.22447 | 38.76432 | 37970 ft | 471 kts | 196° |
| 2026-04-22 18:59 | -8.28654 | 38.74434 | 37967 ft | 471 kts | 196° |
| 2026-04-22 19:00 | -8.34894 | 38.72424 | 37975 ft | 471 kts | 196° |
| 2026-04-22 19:00 | -8.41132 | 38.70414 | 37980 ft | 470 kts | 196° |
| 2026-04-22 19:01 | -8.47385 | 38.68400 | 38240 ft | 472 kts | 196° |
| 2026-04-22 19:01 | -8.50543 | 38.67382 | 38667 ft | 469 kts | 196° |
| 2026-04-22 19:01 | -8.53596 | 38.66401 | 39053 ft | 465 kts | 196° |
| 2026-04-22 19:02 | -8.56670 | 38.65413 | 39407 ft | 462 kts | 196° |
| 2026-04-22 19:02 | -8.59729 | 38.64430 | 39714 ft | 459 kts | 196° |
| 2026-04-22 19:02 | -8.62762 | 38.63455 | 40004 ft | 457 kts | 196° |
| 2026-04-22 19:02 | -8.65790 | 38.62481 | 39970 ft | 455 kts | 196° |
| 2026-04-22 19:03 | -8.71758 | 38.60561 | 39973 ft | 447 kts | 196° |
| 2026-04-22 19:03 | -8.77674 | 38.58657 | 39985 ft | 445 kts | 196° |
| 2026-04-22 19:04 | -8.83575 | 38.56757 | 39984 ft | 445 kts | 196° |
| 2026-04-22 19:04 | -8.89487 | 38.54853 | 39990 ft | 446 kts | 196° |
| 2026-04-22 19:05 | -8.95402 | 38.52948 | 39992 ft | 447 kts | 196° |
| 2026-04-22 19:05 | -9.01321 | 38.51040 | 39986 ft | 448 kts | 196° |
| 2026-04-22 19:06 | -9.07268 | 38.49122 | 39989 ft | 449 kts | 196° |
| 2026-04-22 19:07 | -9.16198 | 38.46241 | 39988 ft | 449 kts | 196° |
| 2026-04-22 19:07 | -9.22122 | 38.44329 | 39988 ft | 449 kts | 196° |
| 2026-04-22 19:08 | -9.28079 | 38.42406 | 39992 ft | 449 kts | 196° |
| 2026-04-22 19:08 | -9.34036 | 38.40482 | 39993 ft | 449 kts | 196° |
| 2026-04-22 19:09 | -9.39981 | 38.38562 | 39994 ft | 449 kts | 196° |
| 2026-04-22 19:09 | -9.44964 | 38.36951 | 39994 ft | 448 kts | 196° |
| 2026-04-22 19:10 | -9.51863 | 38.34721 | 39999 ft | 448 kts | 196° |
| 2026-04-22 19:10 | -9.57802 | 38.32800 | 39996 ft | 447 kts | 196° |
| 2026-04-22 19:11 | -9.63727 | 38.30883 | 39994 ft | 447 kts | 196° |
| 2026-04-22 19:11 | -9.69656 | 38.28964 | 39994 ft | 447 kts | 196° |
| 2026-04-22 19:12 | -9.75543 | 38.27058 | 39995 ft | 447 kts | 196° |
| 2026-04-22 19:12 | -9.81458 | 38.25142 | 39996 ft | 447 kts | 196° |
| 2026-04-22 19:13 | -9.87381 | 38.23223 | 39993 ft | 447 kts | 196° |
| 2026-04-22 19:13 | -9.93297 | 38.21305 | 39995 ft | 447 kts | 196° |
| 2026-04-22 19:14 | -9.99215 | 38.19386 | 39996 ft | 447 kts | 196° |
| 2026-04-22 19:14 | -10.05120 | 38.17471 | 39992 ft | 447 kts | 196° |
| 2026-04-22 19:15 | -10.10088 | 38.15858 | 40003 ft | 447 kts | 196° |
| 2026-04-22 19:15 | -10.16717 | 38.13706 | 39999 ft | 447 kts | 196° |
| 2026-04-22 19:16 | -10.22633 | 38.11785 | 40001 ft | 448 kts | 196° |
| 2026-04-22 19:16 | -10.28582 | 38.09852 | 40001 ft | 448 kts | 196° |
| 2026-04-22 19:17 | -10.34517 | 38.07923 | 40002 ft | 448 kts | 196° |
| 2026-04-22 19:17 | -10.40458 | 38.05992 | 40004 ft | 448 kts | 196° |
| 2026-04-22 19:18 | -10.46403 | 38.04058 | 40001 ft | 448 kts | 196° |
| 2026-04-22 19:18 | -10.52341 | 38.02125 | 40001 ft | 448 kts | 196° |
| 2026-04-22 19:19 | -10.58282 | 38.00191 | 40005 ft | 448 kts | 196° |
| 2026-04-22 19:19 | -10.64025 | 37.98321 | 40003 ft | 448 kts | 196° |
| 2026-04-22 19:20 | -10.69922 | 37.96400 | 40002 ft | 448 kts | 196° |
| 2026-04-22 19:20 | -10.75852 | 37.94467 | 39997 ft | 448 kts | 196° |
| 2026-04-22 19:21 | -10.81781 | 37.92533 | 39998 ft | 447 kts | 196° |
| 2026-04-22 19:21 | -10.87712 | 37.90599 | 40000 ft | 448 kts | 196° |
| 2026-04-22 19:22 | -10.93645 | 37.88663 | 39998 ft | 448 kts | 196° |
| 2026-04-22 19:22 | -10.99581 | 37.86725 | 39996 ft | 448 kts | 196° |
| 2026-04-22 19:23 | -11.05493 | 37.84794 | 39998 ft | 448 kts | 196° |
| 2026-04-22 19:23 | -11.11428 | 37.82854 | 39995 ft | 448 kts | 196° |
| 2026-04-22 19:24 | -11.17369 | 37.80912 | 39991 ft | 448 kts | 196° |
| 2026-04-22 19:24 | -11.22297 | 37.79300 | 39996 ft | 448 kts | 196° |
| 2026-04-22 19:25 | -11.28233 | 37.77358 | 40000 ft | 448 kts | 196° |
| 2026-04-22 19:25 | -11.34171 | 37.75415 | 40000 ft | 448 kts | 196° |
| 2026-04-22 19:26 | -11.40108 | 37.73470 | 39993 ft | 448 kts | 196° |
| 2026-04-22 19:26 | -11.46037 | 37.71528 | 39998 ft | 448 kts | 196° |
| 2026-04-22 19:27 | -11.51975 | 37.69582 | 39999 ft | 448 kts | 196° |
| 2026-04-22 19:27 | -11.57909 | 37.67635 | 40000 ft | 448 kts | 196° |
| 2026-04-22 19:28 | -11.63808 | 37.65700 | 39999 ft | 448 kts | 196° |
| 2026-04-22 19:28 | -11.69731 | 37.63702 | 40008 ft | 448 kts | 197° |
| 2026-04-22 19:29 | -11.75646 | 37.61676 | 40005 ft | 449 kts | 197° |
| 2026-04-22 19:29 | -11.81567 | 37.59650 | 40009 ft | 449 kts | 197° |
| 2026-04-22 19:30 | -11.86529 | 37.57956 | 40010 ft | 449 kts | 197° |
| 2026-04-22 19:30 | -11.93407 | 37.55609 | 40008 ft | 449 kts | 197° |
| 2026-04-22 19:31 | -11.99338 | 37.53586 | 40005 ft | 449 kts | 197° |
| 2026-04-22 19:31 | -12.05247 | 37.51568 | 40012 ft | 449 kts | 197° |
| 2026-04-22 19:32 | -12.11184 | 37.49539 | 40008 ft | 449 kts | 197° |
| 2026-04-22 19:32 | -12.17115 | 37.47512 | 40007 ft | 449 kts | 197° |
| 2026-04-22 19:33 | -12.23052 | 37.45482 | 40025 ft | 450 kts | 197° |
| 2026-04-22 19:33 | -12.28991 | 37.43450 | 40009 ft | 450 kts | 197° |
| 2026-04-22 19:34 | -12.34938 | 37.41415 | 40004 ft | 451 kts | 197° |
| 2026-04-22 19:34 | -12.40893 | 37.39375 | 40009 ft | 451 kts | 197° |
| 2026-04-22 19:35 | -12.46845 | 37.37336 | 40006 ft | 451 kts | 197° |
| 2026-04-22 19:35 | -12.52799 | 37.35295 | 40008 ft | 451 kts | 197° |
| 2026-04-22 19:36 | -12.58712 | 37.33267 | 40010 ft | 451 kts | 197° |
| 2026-04-22 19:36 | -12.64664 | 37.31225 | 40008 ft | 451 kts | 197° |
| 2026-04-22 19:37 | -12.70624 | 37.29178 | 40012 ft | 451 kts | 197° |
| 2026-04-22 19:37 | -12.76575 | 37.27134 | 40013 ft | 451 kts | 197° |
| 2026-04-22 19:38 | -12.82529 | 37.25089 | 40019 ft | 451 kts | 197° |
| 2026-04-22 19:38 | -12.88504 | 37.23090 | 40009 ft | 452 kts | 197° |
| 2026-04-22 19:39 | -12.94495 | 37.21115 | 40038 ft | 452 kts | 197° |
| 2026-04-22 19:39 | -13.00473 | 37.19138 | 40024 ft | 452 kts | 197° |
| 2026-04-22 19:40 | -13.06463 | 37.17150 | 40038 ft | 453 kts | 197° |
| 2026-04-22 19:40 | -13.12465 | 37.15155 | 40031 ft | 453 kts | 197° |
| 2026-04-22 19:41 | -13.18467 | 37.13159 | 40047 ft | 454 kts | 197° |
| 2026-04-22 19:41 | -13.24466 | 37.11162 | 40052 ft | 454 kts | 197° |
| 2026-04-22 19:42 | -13.30476 | 37.09162 | 40052 ft | 454 kts | 197° |
| 2026-04-22 19:42 | -13.36494 | 37.07157 | 40051 ft | 454 kts | 197° |
| 2026-04-22 19:43 | -13.45519 | 37.04149 | 40053 ft | 455 kts | 197° |
| 2026-04-22 19:43 | -13.51501 | 37.02154 | 40062 ft | 455 kts | 197° |
| 2026-04-22 19:44 | -13.57526 | 37.00144 | 40058 ft | 455 kts | 197° |
| 2026-04-22 19:44 | -13.63368 | 36.98193 | 40062 ft | 455 kts | 197° |
| 2026-04-22 19:45 | -13.69391 | 36.96181 | 40060 ft | 455 kts | 198° |
| 2026-04-22 19:45 | -13.75421 | 36.94166 | 40058 ft | 455 kts | 198° |
| 2026-04-22 19:46 | -13.81445 | 36.92151 | 40061 ft | 456 kts | 198° |
| 2026-04-22 19:46 | -13.87473 | 36.90134 | 40061 ft | 456 kts | 198° |
| 2026-04-22 19:47 | -13.93510 | 36.88113 | 40050 ft | 456 kts | 198° |
| 2026-04-22 19:47 | -13.99542 | 36.86092 | 40055 ft | 456 kts | 198° |
| 2026-04-22 19:48 | -14.05574 | 36.84080 | 40053 ft | 456 kts | 197° |
| 2026-04-22 19:48 | -14.11625 | 36.82092 | 40052 ft | 457 kts | 198° |
| 2026-04-22 19:49 | -14.17684 | 36.80103 | 40049 ft | 457 kts | 198° |
| 2026-04-22 19:49 | -14.23746 | 36.78107 | 40047 ft | 457 kts | 198° |
| 2026-04-22 19:50 | -14.29811 | 36.76108 | 40044 ft | 458 kts | 198° |
| 2026-04-22 19:50 | -14.35877 | 36.74106 | 40045 ft | 458 kts | 198° |
| 2026-04-22 19:51 | -14.41947 | 36.72102 | 40050 ft | 459 kts | 198° |
| 2026-04-22 19:51 | -14.48035 | 36.70091 | 40046 ft | 459 kts | 198° |
| 2026-04-22 19:52 | -14.54124 | 36.68078 | 40046 ft | 460 kts | 198° |
| 2026-04-22 19:52 | -14.60222 | 36.66061 | 40047 ft | 460 kts | 198° |
| 2026-04-22 19:53 | -14.66323 | 36.64042 | 40047 ft | 461 kts | 198° |
| 2026-04-22 19:53 | -14.72390 | 36.62034 | 40047 ft | 461 kts | 198° |
| 2026-04-22 19:54 | -14.78544 | 36.59995 | 40056 ft | 461 kts | 198° |
| 2026-04-22 19:54 | -14.84617 | 36.57982 | 40052 ft | 462 kts | 198° |
| 2026-04-22 19:55 | -14.90779 | 36.55938 | 40059 ft | 462 kts | 198° |
| 2026-04-22 19:55 | -14.96857 | 36.53920 | 40056 ft | 462 kts | 198° |
| 2026-04-22 19:56 | -15.02970 | 36.51891 | 40057 ft | 462 kts | 198° |
| 2026-04-22 19:56 | -15.09094 | 36.49856 | 40058 ft | 462 kts | 198° |
| 2026-04-22 19:57 | -15.15224 | 36.47817 | 40062 ft | 463 kts | 198° |
| 2026-04-22 19:57 | -15.21355 | 36.45778 | 40061 ft | 463 kts | 198° |
| 2026-04-22 19:58 | -15.27495 | 36.43733 | 40070 ft | 463 kts | 198° |
| 2026-04-22 19:58 | -15.33630 | 36.41690 | 40075 ft | 464 kts | 198° |
| 2026-04-22 20:00 | -15.55147 | 36.34512 | 40080 ft | 464 kts | 198° |
| 2026-04-22 20:01 | -15.61297 | 36.32458 | 40089 ft | 464 kts | 198° |
| 2026-04-22 20:01 | -15.67413 | 36.30414 | 40080 ft | 465 kts | 198° |
| 2026-04-22 20:02 | -15.73569 | 36.28354 | 40085 ft | 465 kts | 198° |
| 2026-04-22 20:02 | -15.79729 | 36.26292 | 40085 ft | 465 kts | 198° |
| 2026-04-22 20:03 | -15.85901 | 36.24225 | 40081 ft | 466 kts | 198° |
| 2026-04-22 20:03 | -15.92068 | 36.22158 | 40087 ft | 466 kts | 199° |
| 2026-04-22 20:04 | -15.98251 | 36.20085 | 40088 ft | 467 kts | 199° |
| 2026-04-22 20:04 | -16.04416 | 36.17991 | 40086 ft | 468 kts | 199° |
| 2026-04-22 20:05 | -16.10605 | 36.15866 | 40085 ft | 468 kts | 199° |
| 2026-04-22 20:05 | -16.16799 | 36.13738 | 40084 ft | 469 kts | 199° |
| 2026-04-22 20:06 | -16.22990 | 36.11614 | 40081 ft | 469 kts | 199° |
| 2026-04-22 20:06 | -16.29193 | 36.09486 | 40083 ft | 469 kts | 199° |
| 2026-04-22 20:07 | -16.35353 | 36.07371 | 40084 ft | 469 kts | 199° |
| 2026-04-22 20:07 | -16.41555 | 36.05240 | 40077 ft | 469 kts | 199° |
| 2026-04-22 20:08 | -16.47760 | 36.03106 | 40080 ft | 470 kts | 199° |
| 2026-04-22 20:08 | -16.53970 | 36.00970 | 40079 ft | 470 kts | 199° |
| 2026-04-22 20:09 | -16.59872 | 35.98938 | 40076 ft | 470 kts | 199° |
| 2026-04-22 20:09 | -16.66080 | 35.96799 | 40077 ft | 470 kts | 199° |
| 2026-04-22 20:10 | -16.72296 | 35.94657 | 40078 ft | 471 kts | 199° |
| 2026-04-22 20:10 | -16.78519 | 35.92510 | 40073 ft | 471 kts | 199° |
| 2026-04-22 20:11 | -16.84743 | 35.90361 | 40077 ft | 471 kts | 199° |
| 2026-04-22 20:11 | -16.90964 | 35.88212 | 40073 ft | 471 kts | 199° |
| 2026-04-22 20:12 | -16.96142 | 35.86422 | 40076 ft | 471 kts | 199° |
| 2026-04-22 20:12 | -17.02320 | 35.84285 | 40073 ft | 471 kts | 199° |
| 2026-04-22 20:13 | -17.08542 | 35.82131 | 40070 ft | 472 kts | 199° |
| 2026-04-22 20:13 | -17.14775 | 35.79972 | 40071 ft | 471 kts | 200° |
| 2026-04-22 20:14 | -17.20995 | 35.77816 | 40077 ft | 471 kts | 200° |
| 2026-04-22 20:14 | -17.27229 | 35.75654 | 40074 ft | 471 kts | 200° |
| 2026-04-22 20:15 | -17.33459 | 35.73491 | 40075 ft | 472 kts | 200° |
| 2026-04-22 20:15 | -17.39690 | 35.71326 | 40076 ft | 472 kts | 200° |
| 2026-04-22 20:16 | -17.45930 | 35.69157 | 40072 ft | 472 kts | 200° |
| 2026-04-22 20:16 | -17.52164 | 35.66988 | 40073 ft | 473 kts | 200° |
| 2026-04-22 20:17 | -17.58411 | 35.64813 | 40068 ft | 473 kts | 200° |
| 2026-04-22 20:17 | -17.64657 | 35.62637 | 40067 ft | 474 kts | 200° |
| 2026-04-22 20:18 | -17.70920 | 35.60452 | 40068 ft | 474 kts | 200° |
| 2026-04-22 20:18 | -17.77173 | 35.58269 | 40066 ft | 474 kts | 200° |
| 2026-04-22 20:19 | -17.83439 | 35.56079 | 40065 ft | 474 kts | 200° |
| 2026-04-22 20:19 | -17.89697 | 35.53891 | 40063 ft | 474 kts | 200° |
| 2026-04-22 20:20 | -17.95956 | 35.51701 | 40071 ft | 474 kts | 200° |
| 2026-04-22 20:20 | -18.02193 | 35.49518 | 40068 ft | 474 kts | 200° |
| 2026-04-22 20:21 | -18.08447 | 35.47326 | 40075 ft | 474 kts | 200° |
| 2026-04-22 20:21 | -18.14693 | 35.45136 | 40072 ft | 473 kts | 200° |
| 2026-04-22 20:22 | -18.20906 | 35.42955 | 40073 ft | 473 kts | 200° |
| 2026-04-22 20:22 | -18.27151 | 35.40762 | 40073 ft | 473 kts | 200° |
| 2026-04-22 20:23 | -18.33394 | 35.38567 | 40076 ft | 473 kts | 200° |
| 2026-04-22 20:23 | -18.39635 | 35.36372 | 40078 ft | 473 kts | 200° |
| 2026-04-22 20:24 | -18.45880 | 35.34173 | 40079 ft | 473 kts | 200° |
| 2026-04-22 20:24 | -18.52119 | 35.31974 | 40078 ft | 473 kts | 200° |
| 2026-04-22 20:25 | -18.58362 | 35.29773 | 40082 ft | 473 kts | 200° |
| 2026-04-22 20:25 | -18.64608 | 35.27573 | 40082 ft | 473 kts | 200° |
| 2026-04-22 20:26 | -18.70853 | 35.25374 | 40081 ft | 473 kts | 200° |
| 2026-04-22 20:26 | -18.77106 | 35.23171 | 40082 ft | 473 kts | 200° |
| 2026-04-22 20:27 | -18.83352 | 35.20967 | 40079 ft | 473 kts | 200° |
| 2026-04-22 20:27 | -18.89600 | 35.18760 | 40079 ft | 473 kts | 200° |
| 2026-04-22 20:28 | -18.95857 | 35.16549 | 40088 ft | 473 kts | 200° |
| 2026-04-22 20:28 | -19.02045 | 35.14360 | 40079 ft | 474 kts | 200° |
| 2026-04-22 20:29 | -19.08295 | 35.12148 | 40084 ft | 473 kts | 200° |
| 2026-04-22 20:29 | -19.14541 | 35.09935 | 40080 ft | 473 kts | 200° |
| 2026-04-22 20:30 | -19.20786 | 35.07722 | 40080 ft | 473 kts | 200° |
| 2026-04-22 20:30 | -19.27021 | 35.05509 | 40086 ft | 473 kts | 200° |
| 2026-04-22 20:31 | -19.33266 | 35.03291 | 40082 ft | 473 kts | 200° |
| 2026-04-22 20:31 | -19.39506 | 35.01074 | 40083 ft | 473 kts | 200° |
| 2026-04-22 20:32 | -19.45497 | 34.98943 | 40085 ft | 473 kts | 200° |
| 2026-04-22 20:32 | -19.51734 | 34.96723 | 40080 ft | 473 kts | 200° |
| 2026-04-22 20:33 | -19.57965 | 34.94502 | 40085 ft | 472 kts | 200° |
| 2026-04-22 20:33 | -19.64199 | 34.92280 | 40078 ft | 472 kts | 200° |
| 2026-04-22 20:34 | -19.70425 | 34.90057 | 40049 ft | 472 kts | 200° |
| 2026-04-22 20:34 | -19.76653 | 34.87833 | 40049 ft | 472 kts | 200° |
| 2026-04-22 20:35 | -19.82874 | 34.85597 | 40048 ft | 472 kts | 200° |
| 2026-04-22 20:35 | -19.89091 | 34.83335 | 40051 ft | 472 kts | 201° |
| 2026-04-22 20:36 | -19.95317 | 34.81065 | 40057 ft | 473 kts | 201° |
| 2026-04-22 20:36 | -20.01480 | 34.78820 | 40070 ft | 473 kts | 201° |
| 2026-04-22 20:37 | -20.07707 | 34.76551 | 40082 ft | 473 kts | 201° |
| 2026-04-22 20:37 | -20.13939 | 34.74279 | 40085 ft | 473 kts | 201° |
| 2026-04-22 20:38 | -20.20173 | 34.72004 | 40091 ft | 474 kts | 201° |
| 2026-04-22 20:38 | -20.26417 | 34.69723 | 40092 ft | 474 kts | 201° |
| 2026-04-22 20:39 | -20.32668 | 34.67437 | 40089 ft | 474 kts | 201° |
| 2026-04-22 20:39 | -20.38920 | 34.65150 | 40090 ft | 474 kts | 201° |
| 2026-04-22 20:40 | -20.45158 | 34.62865 | 40092 ft | 474 kts | 201° |
| 2026-04-22 20:40 | -20.51410 | 34.60574 | 40098 ft | 475 kts | 201° |
| 2026-04-22 20:41 | -20.57659 | 34.58281 | 40094 ft | 475 kts | 201° |
| 2026-04-22 20:41 | -20.63915 | 34.55984 | 40096 ft | 475 kts | 201° |
| 2026-04-22 20:42 | -20.70171 | 34.53685 | 40090 ft | 476 kts | 201° |
| 2026-04-22 20:42 | -20.76389 | 34.51398 | 40103 ft | 476 kts | 201° |
| 2026-04-22 20:43 | -20.82659 | 34.49089 | 40094 ft | 477 kts | 201° |
| 2026-04-22 20:43 | -20.88931 | 34.46778 | 40106 ft | 477 kts | 201° |
| 2026-04-22 20:44 | -20.95200 | 34.44465 | 40089 ft | 477 kts | 201° |
| 2026-04-22 20:44 | -21.01461 | 34.42188 | 40095 ft | 477 kts | 201° |
| 2026-04-22 20:45 | -21.07767 | 34.39957 | 40101 ft | 477 kts | 201° |
| 2026-04-22 20:45 | -21.14117 | 34.37710 | 40101 ft | 477 kts | 201° |
| 2026-04-22 20:46 | -21.23535 | 34.34358 | 40102 ft | 477 kts | 201° |
| 2026-04-22 20:46 | -21.29878 | 34.32094 | 40103 ft | 477 kts | 201° |
| 2026-04-22 20:47 | -21.36144 | 34.29855 | 40113 ft | 477 kts | 201° |
| 2026-04-22 20:47 | -21.42447 | 34.27601 | 40111 ft | 478 kts | 201° |
| 2026-04-22 20:48 | -21.48756 | 34.25344 | 40111 ft | 478 kts | 201° |
| 2026-04-22 20:48 | -21.55060 | 34.23086 | 40115 ft | 478 kts | 201° |
| 2026-04-22 20:49 | -21.61367 | 34.20825 | 40141 ft | 477 kts | 201° |
| 2026-04-22 20:49 | -21.67663 | 34.18567 | 40129 ft | 477 kts | 202° |
| 2026-04-22 20:50 | -21.73946 | 34.16310 | 40126 ft | 476 kts | 202° |
| 2026-04-22 20:50 | -21.80225 | 34.14053 | 40128 ft | 475 kts | 202° |
| 2026-04-22 20:51 | -21.86504 | 34.11793 | 40128 ft | 475 kts | 202° |
| 2026-04-22 20:51 | -21.92756 | 34.09541 | 40133 ft | 474 kts | 202° |
| 2026-04-22 20:52 | -21.99001 | 34.07290 | 40141 ft | 475 kts | 202° |
| 2026-04-22 20:52 | -22.05258 | 34.05032 | 40138 ft | 476 kts | 202° |
| 2026-04-22 20:53 | -22.11547 | 34.02760 | 40137 ft | 477 kts | 202° |
| 2026-04-22 20:53 | -22.17800 | 34.00490 | 40142 ft | 477 kts | 202° |
| 2026-04-22 20:54 | -22.23844 | 33.98269 | 40139 ft | 478 kts | 202° |
| 2026-04-22 20:54 | -22.30149 | 33.95947 | 40139 ft | 479 kts | 203° |
| 2026-04-22 20:55 | -22.36452 | 33.93628 | 40149 ft | 479 kts | 203° |
| 2026-04-22 20:55 | -22.42759 | 33.91307 | 40140 ft | 478 kts | 203° |
| 2026-04-22 20:56 | -22.49053 | 33.88988 | 40142 ft | 477 kts | 203° |
| 2026-04-22 20:56 | -22.55328 | 33.86670 | 40159 ft | 476 kts | 204° |
| 2026-04-22 20:57 | -22.60588 | 33.84721 | 40156 ft | 476 kts | 204° |
| 2026-04-22 20:57 | -22.66813 | 33.82411 | 40152 ft | 476 kts | 204° |
| 2026-04-22 20:58 | -22.73085 | 33.80083 | 40151 ft | 476 kts | 204° |
| 2026-04-22 20:58 | -22.79397 | 33.77738 | 40154 ft | 476 kts | 204° |
| 2026-04-22 20:59 | -22.85633 | 33.75418 | 40166 ft | 477 kts | 204° |
| 2026-04-22 20:59 | -22.91923 | 33.73077 | 40159 ft | 478 kts | 204° |
| 2026-04-22 21:00 | -22.98216 | 33.70732 | 40157 ft | 478 kts | 204° |
| 2026-04-22 21:00 | -23.04486 | 33.68393 | 40172 ft | 478 kts | 204° |
| 2026-04-22 21:01 | -23.10783 | 33.66042 | 40162 ft | 478 kts | 204° |
| 2026-04-22 21:01 | -23.17073 | 33.63691 | 40161 ft | 478 kts | 205° |
| 2026-04-22 21:02 | -23.23361 | 33.61338 | 40159 ft | 477 kts | 205° |
| 2026-04-22 21:02 | -23.29626 | 33.58988 | 40159 ft | 476 kts | 205° |
| 2026-04-22 21:03 | -23.35826 | 33.56499 | 40159 ft | 474 kts | 206° |
| 2026-04-22 21:03 | -23.41984 | 33.53969 | 40156 ft | 473 kts | 206° |
| 2026-04-22 21:04 | -23.48160 | 33.51458 | 40164 ft | 473 kts | 206° |
| 2026-04-22 21:04 | -23.54326 | 33.48960 | 40160 ft | 473 kts | 206° |
| 2026-04-22 21:05 | -23.60500 | 33.46472 | 40159 ft | 473 kts | 206° |
| 2026-04-22 21:05 | -23.66633 | 33.44001 | 40161 ft | 473 kts | 206° |
| 2026-04-22 21:06 | -23.72808 | 33.41507 | 40159 ft | 473 kts | 206° |
| 2026-04-22 21:06 | -23.78980 | 33.39011 | 40167 ft | 473 kts | 206° |
| 2026-04-22 21:07 | -23.85155 | 33.36511 | 40168 ft | 474 kts | 206° |
| 2026-04-22 21:07 | -23.91342 | 33.34003 | 40166 ft | 474 kts | 206° |
| 2026-04-22 21:08 | -23.97526 | 33.31496 | 40161 ft | 472 kts | 206° |
| 2026-04-22 21:08 | -24.00585 | 33.30254 | 39686 ft | 475 kts | 206° |
| 2026-04-22 21:08 | -24.03689 | 33.28992 | 39118 ft | 475 kts | 206° |
| 2026-04-22 21:09 | -24.06587 | 33.27814 | 38384 ft | 477 kts | 206° |
| 2026-04-22 21:09 | -24.09707 | 33.26544 | 37607 ft | 478 kts | 206° |
| 2026-04-22 21:09 | -24.12834 | 33.25272 | 36836 ft | 480 kts | 206° |
| 2026-04-22 21:09 | -24.15972 | 33.23994 | 36050 ft | 482 kts | 206° |
| 2026-04-22 21:10 | -24.19119 | 33.22712 | 35141 ft | 486 kts | 206° |
| 2026-04-22 21:10 | -24.22312 | 33.21409 | 34164 ft | 493 kts | 206° |
| 2026-04-22 21:10 | -24.25543 | 33.20090 | 33044 ft | 498 kts | 206° |
| 2026-04-22 21:10 | -24.28810 | 33.18757 | 31978 ft | 502 kts | 205° |
| 2026-04-22 21:11 | -24.32092 | 33.17419 | 30898 ft | 506 kts | 205° |
| 2026-04-22 21:11 | -24.35387 | 33.16076 | 30096 ft | 503 kts | 205° |
| 2026-04-22 21:11 | -24.38650 | 33.14746 | 29226 ft | 500 kts | 205° |
| 2026-04-22 21:11 | -24.41900 | 33.13420 | 28437 ft | 495 kts | 205° |
| 2026-04-22 21:12 | -24.45073 | 33.12124 | 27709 ft | 491 kts | 205° |
| 2026-04-22 21:12 | -24.48174 | 33.10854 | 26988 ft | 487 kts | 205° |
| 2026-04-22 21:12 | -24.51339 | 33.09557 | 26287 ft | 484 kts | 205° |
| 2026-04-22 21:12 | -24.54484 | 33.08267 | 25563 ft | 481 kts | 205° |
| 2026-04-22 21:13 | -24.57616 | 33.06984 | 24840 ft | 479 kts | 205° |
| 2026-04-22 21:13 | -24.60765 | 33.05794 | 24110 ft | 479 kts | 202° |
| 2026-04-22 21:13 | -24.63949 | 33.04686 | 23342 ft | 478 kts | 202° |
| 2026-04-22 21:13 | -24.67127 | 33.03620 | 22543 ft | 475 kts | 201° |
| 2026-04-22 21:14 | -24.70272 | 33.02575 | 21827 ft | 471 kts | 201° |
| 2026-04-22 21:14 | -24.73398 | 33.01533 | 21132 ft | 466 kts | 201° |
| 2026-04-22 21:14 | -24.76320 | 33.00551 | 20482 ft | 462 kts | 201° |
| 2026-04-22 21:14 | -24.79229 | 32.99565 | 19882 ft | 456 kts | 201° |
| 2026-04-22 21:15 | -24.82227 | 32.98546 | 19212 ft | 440 kts | 201° |
| 2026-04-22 21:15 | -24.85086 | 32.97574 | 18509 ft | 421 kts | 201° |
| 2026-04-22 21:15 | -24.87819 | 32.96641 | 17796 ft | 404 kts | 200° |
| 2026-04-22 21:15 | -24.90499 | 32.95721 | 17171 ft | 403 kts | 200° |
| 2026-04-22 21:16 | -24.93170 | 32.94800 | 16571 ft | 402 kts | 199° |
| 2026-04-22 21:16 | -24.95844 | 32.93879 | 15973 ft | 401 kts | 199° |
| 2026-04-22 21:16 | -24.98500 | 32.92965 | 15374 ft | 400 kts | 198° |
| 2026-04-22 21:16 | -25.01135 | 32.92059 | 14765 ft | 398 kts | 198° |
| 2026-04-22 21:17 | -25.03749 | 32.91160 | 14150 ft | 385 kts | 197° |
| 2026-04-22 21:17 | -25.06241 | 32.90303 | 13514 ft | 365 kts | 197° |
| 2026-04-22 21:17 | -25.08665 | 32.89471 | 12952 ft | 365 kts | 197° |
| 2026-04-22 21:17 | -25.11097 | 32.88637 | 12388 ft | 365 kts | 198° |
| 2026-04-22 21:18 | -25.13519 | 32.87805 | 11810 ft | 365 kts | 198° |
| 2026-04-22 21:18 | -25.15950 | 32.86969 | 11249 ft | 365 kts | 197° |
| 2026-04-22 21:18 | -25.18041 | 32.86250 | 11081 ft | 356 kts | 197° |
| 2026-04-22 21:18 | -25.20263 | 32.85486 | 10921 ft | 346 kts | 198° |
| 2026-04-22 21:19 | -25.22526 | 32.84709 | 10753 ft | 334 kts | 198° |
| 2026-04-22 21:19 | -25.24661 | 32.83973 | 10600 ft | 309 kts | 198° |
| 2026-04-22 21:19 | -25.26663 | 32.83284 | 10488 ft | 295 kts | 198° |
| 2026-04-22 21:19 | -25.28598 | 32.82616 | 10369 ft | 288 kts | 198° |
| 2026-04-22 21:20 | -25.30463 | 32.81973 | 10256 ft | 280 kts | 198° |
| 2026-04-22 21:20 | -25.32315 | 32.81333 | 10006 ft | 279 kts | 197° |
| 2026-04-22 21:20 | -25.34165 | 32.80694 | 9662 ft | 279 kts | 197° |
| 2026-04-22 21:20 | -25.36017 | 32.80054 | 9344 ft | 277 kts | 196° |
| 2026-04-22 21:21 | -25.37851 | 32.79421 | 9013 ft | 275 kts | 196° |
| 2026-04-22 21:21 | -25.39666 | 32.78793 | 8722 ft | 270 kts | 195° |
| 2026-04-22 21:21 | -25.41414 | 32.78188 | 8350 ft | 257 kts | 195° |
| 2026-04-22 21:21 | -25.43080 | 32.77611 | 7972 ft | 246 kts | 195° |
| 2026-04-22 21:22 | -25.44666 | 32.77062 | 7710 ft | 230 kts | 193° |
| 2026-04-22 21:22 | -25.46146 | 32.76549 | 7467 ft | 219 kts | 195° |
| 2026-04-22 21:22 | -25.47577 | 32.76053 | 7266 ft | 210 kts | 193° |
| 2026-04-22 21:22 | -25.48948 | 32.75578 | 7011 ft | 204 kts | 192° |
| 2026-04-22 21:23 | -25.50300 | 32.75113 | 6676 ft | 202 kts | 194° |
| 2026-04-22 21:23 | -25.51638 | 32.74650 | 6334 ft | 200 kts | 192° |
| 2026-04-22 21:23 | -25.52961 | 32.74193 | 5980 ft | 198 kts | 193° |
| 2026-04-22 21:23 | -25.54262 | 32.73742 | 5732 ft | 192 kts | 192° |
| 2026-04-22 21:24 | -25.55505 | 32.73310 | 5531 ft | 184 kts | 192° |
| 2026-04-22 21:24 | -25.56708 | 32.72894 | 5308 ft | 178 kts | 192° |
| 2026-04-22 21:24 | -25.57860 | 32.72493 | 5138 ft | 169 kts | 191° |
| 2026-04-22 21:24 | -25.58978 | 32.72107 | 5041 ft | 171 kts | 191° |
| 2026-04-22 21:25 | -25.60106 | 32.71718 | 4940 ft | 169 kts | 191° |
| 2026-04-22 21:25 | -25.61260 | 32.71320 | 4720 ft | 173 kts | 191° |
| 2026-04-22 21:25 | -25.62388 | 32.70929 | 4545 ft | 171 kts | 191° |
| 2026-04-22 21:25 | -25.63508 | 32.70540 | 4380 ft | 165 kts | 191° |
| 2026-04-22 21:26 | -25.64588 | 32.70164 | 4186 ft | 161 kts | 191° |
| 2026-04-22 21:26 | -25.65662 | 32.69793 | 4022 ft | 162 kts | 191° |
| 2026-04-22 21:26 | -25.66740 | 32.69420 | 3842 ft | 162 kts | 191° |
| 2026-04-22 21:26 | -25.67804 | 32.69050 | 3704 ft | 158 kts | 191° |
| 2026-04-22 21:27 | -25.68861 | 32.68684 | 3508 ft | 160 kts | 191° |
| 2026-04-22 21:27 | -25.69920 | 32.68317 | 3284 ft | 159 kts | 192° |
| 2026-04-22 21:27 | -25.70967 | 32.67953 | 3066 ft | 157 kts | 191° |
| 2026-04-22 21:27 | -25.72000 | 32.67594 | 2852 ft | 155 kts | 192° |
| 2026-04-22 21:28 | -25.73026 | 32.67238 | 2790 ft | 154 kts | 191° |
| 2026-04-22 21:28 | -25.74050 | 32.66882 | 2732 ft | 155 kts | 191° |
| 2026-04-22 21:28 | -25.75086 | 32.66523 | 2682 ft | 153 kts | 191° |
| 2026-04-22 21:28 | -25.76079 | 32.66176 | 2602 ft | 147 kts | 191° |
| 2026-04-22 21:29 | -25.77024 | 32.65847 | 2554 ft | 138 kts | 191° |
| 2026-04-22 21:29 | -25.77928 | 32.65532 | 2521 ft | 135 kts | 191° |
| 2026-04-22 21:29 | -25.78822 | 32.65221 | 2392 ft | 133 kts | 192° |
| 2026-04-22 21:29 | -25.79675 | 32.64824 | 2220 ft | 132 kts | 198° |
| 2026-04-22 21:30 | -25.80493 | 32.64362 | 2034 ft | 133 kts | 200° |
| 2026-04-22 21:30 | -25.81306 | 32.63876 | 1856 ft | 130 kts | 201° |
| 2026-04-22 21:30 | -25.82096 | 32.63395 | 1798 ft | 131 kts | 201° |
| 2026-04-22 21:30 | -25.82919 | 32.62893 | 1625 ft | 136 kts | 203° |
| 2026-04-22 21:31 | -25.83744 | 32.62385 | 1432 ft | 134 kts | 203° |
| 2026-04-22 21:31 | -25.84549 | 32.61890 | 1259 ft | 131 kts | 204° |
| 2026-04-22 21:31 | -25.85351 | 32.61397 | 1097 ft | 133 kts | 205° |
| 2026-04-22 21:31 | -25.86167 | 32.60896 | 924 ft | 134 kts | 206° |
| 2026-04-22 21:32 | -25.86990 | 32.60390 | 772 ft | 135 kts | 207° |
| 2026-04-22 21:32 | -25.87822 | 32.59873 | 629 ft | 139 kts | 207° |
| 2026-04-22 21:32 | -25.88655 | 32.59355 | 407 ft | 134 kts | 209° |
| 2026-04-22 21:32 | -25.89443 | 32.58870 | 220 ft | 124 kts | 209° |
| 2026-04-22 21:33 | -25.90162 | 32.58429 | 154 ft | 102 kts | 209° |
| 2026-04-22 21:33 | -25.90620 | 32.58147 | 145 ft | 49 kts | 209° |
| 2026-04-22 21:33 | -25.90827 | 32.58020 | 143 ft | 31 kts | 209° |
| 2026-04-22 21:33 | -25.91061 | 32.57876 | 145 ft | 47 kts | 209° |
| 2026-04-22 21:34 | -25.91337 | 32.57707 | 143 ft | 44 kts | 209° |
| 2026-04-22 21:34 | -25.91596 | 32.57551 | 138 ft | 41 kts | 209° |
| 2026-04-22 21:34 | -25.91841 | 32.57401 | 137 ft | 39 kts | 209° |
| 2026-04-22 21:34 | -25.92009 | 32.57298 | 135 ft | 15 kts | 208° |
| 2026-04-22 21:35 | -25.92056 | 32.57292 | 138 ft | 6 kts | 133° |
| 2026-04-22 21:35 | -25.92063 | 32.57344 | 137 ft | 9 kts | 93° |
| 2026-04-22 21:35 | -25.92074 | 32.57424 | 135 ft | 12 kts | 128° |
| 2026-04-22 21:35 | -25.92150 | 32.57451 | 130 ft | 0 kts | 162° |
| 2026-04-22 21:36 | -25.92151 | 32.57452 | 130 ft | 1 kts | 162° |
| 2026-04-22 21:37 | -25.92180 | 32.57465 | 127 ft | 14 kts | 155° |
| 2026-04-22 21:37 | -25.92220 | 32.57481 | 132 ft | 0 kts | 170° |
| 2026-04-22 21:37 | -25.92244 | 32.57484 | 127 ft | 8 kts | 173° |
| 2026-04-22 21:37 | -25.92284 | 32.57488 | 129 ft | 0 kts | 176° |